<?xml version='1.0' encoding='UTF-8'?><gpx version="1.1" creator="JPX - https://github.com/jenetics/jpx" xmlns="http://www.topografix.com/GPX/1/1"><trk><trkseg><trkpt lat="45.65223604707621" lon="13.881728617594343"><ele>411.0</ele><time>2026-04-23T15:17:14Z</time></trkpt><trkpt lat="45.652166850368815" lon="13.881710679321008"><ele>411.0</ele><time>2026-04-23T15:17:20Z</time></trkpt><trkpt lat="45.65210206434618" lon="13.88168276948805"><ele>411.0</ele><time>2026-04-23T15:17:25Z</time></trkpt><trkpt lat="45.652030794102636" lon="13.881645968387748"><ele>411.0</ele><time>2026-04-23T15:17:30Z</time></trkpt><trkpt lat="45.651964948167105" lon="13.88166421144887"><ele>411.0</ele><time>2026-04-23T15:17:35Z</time></trkpt><trkpt lat="45.651898443637045" lon="13.881681446907807"><ele>411.0</ele><time>2026-04-23T15:17:40Z</time></trkpt><trkpt lat="45.651840235381734" lon="13.881722578575355"><ele>411.0</ele><time>2026-04-23T15:17:45Z</time></trkpt><trkpt lat="45.65177796296467" lon="13.881761028833612"><ele>411.57142857142856</ele><time>2026-04-23T15:17:50Z</time></trkpt><trkpt lat="45.65173840804521" lon="13.881832546098265"><ele>412.1428571428571</ele><time>2026-04-23T15:17:55Z</time></trkpt><trkpt lat="45.651699633917644" lon="13.881909628851735"><ele>412.7142857142857</ele><time>2026-04-23T15:18:01Z</time></trkpt><trkpt lat="45.65166877349939" lon="13.881995801024114"><ele>413.2857142857143</ele><time>2026-04-23T15:18:06Z</time></trkpt><trkpt lat="45.651647770842544" lon="13.882089330888723"><ele>413.8571428571429</ele><time>2026-04-23T15:18:11Z</time></trkpt><trkpt lat="45.65163949483649" lon="13.882183101628005"><ele>414.42857142857144</ele><time>2026-04-23T15:18:17Z</time></trkpt><trkpt lat="45.65160926493338" lon="13.882262314903073"><ele>415.0</ele><time>2026-04-23T15:18:23Z</time></trkpt><trkpt lat="45.651552788169504" lon="13.882333776492285"><ele>415.0</ele><time>2026-04-23T15:18:27.999Z</time></trkpt><trkpt lat="45.65149453299384" lon="13.882401806137889"><ele>415.0</ele><time>2026-04-23T15:18:33.999Z</time></trkpt><trkpt lat="45.6514391680329" lon="13.882455919665475"><ele>415.0</ele><time>2026-04-23T15:18:38.999Z</time></trkpt><trkpt lat="45.651389964630745" lon="13.882520145068828"><ele>415.0</ele><time>2026-04-23T15:18:44.999Z</time></trkpt><trkpt lat="45.651361696580864" lon="13.882604198305993"><ele>415.0</ele><time>2026-04-23T15:18:50Z</time></trkpt><trkpt lat="45.65134236290505" lon="13.882691912826894"><ele>415.0</ele><time>2026-04-23T15:18:56Z</time></trkpt><trkpt lat="45.65129539264174" lon="13.882774911058217"><ele>415.0</ele><time>2026-04-23T15:19:03Z</time></trkpt><trkpt lat="45.65123923762849" lon="13.882841998479558"><ele>415.42857142857144</ele><time>2026-04-23T15:19:09Z</time></trkpt><trkpt lat="45.65117885813899" lon="13.882900722695402"><ele>415.8571428571429</ele><time>2026-04-23T15:19:16Z</time></trkpt><trkpt lat="45.65112918825601" lon="13.882963739855953"><ele>416.2857142857143</ele><time>2026-04-23T15:19:22Z</time></trkpt><trkpt lat="45.65107802143799" lon="13.883031950546567"><ele>416.7142857142857</ele><time>2026-04-23T15:19:28Z</time></trkpt><trkpt lat="45.65105929829936" lon="13.883121405858464"><ele>417.1428571428571</ele><time>2026-04-23T15:19:34Z</time></trkpt><trkpt lat="45.65102760707387" lon="13.883203936146101"><ele>417.57142857142856</ele><time>2026-04-23T15:19:40Z</time></trkpt><trkpt lat="45.65098607142649" lon="13.88327717605317"><ele>418.0</ele><time>2026-04-23T15:19:46Z</time></trkpt><trkpt lat="45.65093394842505" lon="13.883342923051437"><ele>418.2857142857143</ele><time>2026-04-23T15:19:53Z</time></trkpt><trkpt lat="45.65087014898638" lon="13.883381155068452"><ele>418.57142857142856</ele><time>2026-04-23T15:20:47.999Z</time></trkpt><trkpt lat="45.65081145016473" lon="13.883433147600451"><ele>418.8571428571429</ele><time>2026-04-23T15:20:54Z</time></trkpt><trkpt lat="45.65075432482478" lon="13.883477366343026"><ele>419.1428571428571</ele><time>2026-04-23T15:20:59Z</time></trkpt><trkpt lat="45.65069325349568" lon="13.88351431283233"><ele>419.42857142857144</ele><time>2026-04-23T15:21:05Z</time></trkpt><trkpt lat="45.65064113665243" lon="13.883588484228545"><ele>419.7142857142857</ele><time>2026-04-23T15:21:11Z</time></trkpt><trkpt lat="45.6506133208265" lon="13.883688948045759"><ele>420.0</ele><time>2026-04-23T15:21:17Z</time></trkpt><trkpt lat="45.65058412884373" lon="13.8837805906249"><ele>420.7142857142857</ele><time>2026-04-23T15:21:23Z</time></trkpt><trkpt lat="45.650541188834865" lon="13.883860401991686"><ele>421.42857142857144</ele><time>2026-04-23T15:21:29Z</time></trkpt><trkpt lat="45.650489436940134" lon="13.883925807630662"><ele>422.1428571428571</ele><time>2026-04-23T15:21:36Z</time></trkpt><trkpt lat="45.65042902163692" lon="13.883985905203112"><ele>422.8571428571429</ele><time>2026-04-23T15:21:42Z</time></trkpt><trkpt lat="45.6503945298856" lon="13.884064656991528"><ele>423.57142857142856</ele><time>2026-04-23T15:21:48Z</time></trkpt><trkpt lat="45.650337801184826" lon="13.884140200632446"><ele>424.2857142857143</ele><time>2026-04-23T15:21:54Z</time></trkpt><trkpt lat="45.65027689059962" lon="13.884193533618916"><ele>425.0</ele><time>2026-04-23T15:22:00Z</time></trkpt><trkpt lat="45.6502102035434" lon="13.884206023924623"><ele>425.42857142857144</ele><time>2026-04-23T15:22:07Z</time></trkpt><trkpt lat="45.65014995735274" lon="13.884239357474375"><ele>425.85714285714283</ele><time>2026-04-23T15:22:17Z</time></trkpt><trkpt lat="45.65008325912843" lon="13.884270638481697"><ele>426.28571428571433</ele><time>2026-04-23T15:22:23Z</time></trkpt><trkpt lat="45.65002597979916" lon="13.884327260709444"><ele>426.7142857142857</ele><time>2026-04-23T15:22:27.999Z</time></trkpt><trkpt lat="45.649968324653344" lon="13.884370144021595"><ele>427.14285714285717</ele><time>2026-04-23T15:22:32.999Z</time></trkpt><trkpt lat="45.64991438441599" lon="13.884430401260268"><ele>427.5714285714286</ele><time>2026-04-23T15:22:38.999Z</time></trkpt><trkpt lat="45.64986721095826" lon="13.884490858349878"><ele>428.0</ele><time>2026-04-23T15:22:44.999Z</time></trkpt><trkpt lat="45.6498211183208" lon="13.88456568860619"><ele>428.28571428571433</ele><time>2026-04-23T15:22:49.999Z</time></trkpt><trkpt lat="45.64977769788012" lon="13.884638662594561"><ele>428.57142857142856</ele><time>2026-04-23T15:22:55.999Z</time></trkpt><trkpt lat="45.64972952299101" lon="13.884721423832499"><ele>428.8571428571429</ele><time>2026-04-23T15:23:03Z</time></trkpt><trkpt lat="45.6496730348389" lon="13.884781372141454"><ele>429.14285714285717</ele><time>2026-04-23T15:23:09Z</time></trkpt><trkpt lat="45.64963280355191" lon="13.88487665324659"><ele>429.42857142857144</ele><time>2026-04-23T15:23:16Z</time></trkpt><trkpt lat="45.649591070485776" lon="13.884960257555326"><ele>429.7142857142857</ele><time>2026-04-23T15:23:23Z</time></trkpt><trkpt lat="45.6495414360193" lon="13.885018114163167"><ele>430.0</ele><time>2026-04-23T15:23:28Z</time></trkpt><trkpt lat="45.64950466596222" lon="13.885097829486254"><ele>431.1428571428571</ele><time>2026-04-23T15:23:34Z</time></trkpt><trkpt lat="45.64947118780901" lon="13.885182482352613"><ele>432.28571428571433</ele><time>2026-04-23T15:23:40Z</time></trkpt><trkpt lat="45.64944713251367" lon="13.885267196203673"><ele>433.42857142857144</ele><time>2026-04-23T15:23:47Z</time></trkpt><trkpt lat="45.64941917856394" lon="13.885363600038483"><ele>434.57142857142856</ele><time>2026-04-23T15:23:54Z</time></trkpt><trkpt lat="45.64938461048022" lon="13.885456521363754"><ele>435.71428571428567</ele><time>2026-04-23T15:24:01Z</time></trkpt><trkpt lat="45.649332232766426" lon="13.885513669052553"><ele>436.8571428571429</ele><time>2026-04-23T15:24:08Z</time></trkpt><trkpt lat="45.649271179935184" lon="13.885568138226418"><ele>438.0</ele><time>2026-04-23T15:24:18Z</time></trkpt><trkpt lat="45.64922811243854" lon="13.885639747644788"><ele>439.2857142857143</ele><time>2026-04-23T15:24:32Z</time></trkpt><trkpt lat="45.64915975187766" lon="13.88564831973344"><ele>440.57142857142856</ele><time>2026-04-23T15:24:39Z</time></trkpt><trkpt lat="45.64909634394638" lon="13.8856938237165"><ele>441.85714285714283</ele><time>2026-04-23T15:24:46Z</time></trkpt><trkpt lat="45.649036055692065" lon="13.885748101856345"><ele>443.1428571428571</ele><time>2026-04-23T15:24:54Z</time></trkpt><trkpt lat="45.64897650987043" lon="13.885801098618368"><ele>444.42857142857144</ele><time>2026-04-23T15:25:00.999Z</time></trkpt><trkpt lat="45.64893509324733" lon="13.885881955132286"><ele>445.71428571428567</ele><time>2026-04-23T15:25:09Z</time></trkpt><trkpt lat="45.64889693801447" lon="13.88596706523404"><ele>447.0</ele><time>2026-04-23T15:25:16Z</time></trkpt><trkpt lat="45.648860380170966" lon="13.88605164100156"><ele>447.57142857142856</ele><time>2026-04-23T15:25:23Z</time></trkpt><trkpt lat="45.64882315137464" lon="13.886142844190017"><ele>448.1428571428571</ele><time>2026-04-23T15:25:29Z</time></trkpt><trkpt lat="45.64878387578612" lon="13.886216362439418"><ele>448.71428571428567</ele><time>2026-04-23T15:25:36Z</time></trkpt><trkpt lat="45.64873425081442" lon="13.886274581082326"><ele>449.2857142857143</ele><time>2026-04-23T15:25:44Z</time></trkpt><trkpt lat="45.64870012341674" lon="13.886360814635706"><ele>449.8571428571429</ele><time>2026-04-23T15:25:50Z</time></trkpt><trkpt lat="45.64865405491784" lon="13.886434467218683"><ele>450.4285714285714</ele><time>2026-04-23T15:25:58Z</time></trkpt><trkpt lat="45.64862532713352" lon="13.88652711556067"><ele>451.0</ele><time>2026-04-23T15:26:06Z</time></trkpt><trkpt lat="45.64858934576895" lon="13.886604955113564"><ele>452.2857142857143</ele><time>2026-04-23T15:26:14Z</time></trkpt><trkpt lat="45.64854812332722" lon="13.886675602217968"><ele>453.57142857142856</ele><time>2026-04-23T15:26:20Z</time></trkpt><trkpt lat="45.64848618651804" lon="13.886723404825103"><ele>454.85714285714283</ele><time>2026-04-23T15:26:27Z</time></trkpt><trkpt lat="45.64842520718633" lon="13.886784283791968"><ele>456.1428571428571</ele><time>2026-04-23T15:26:50Z</time></trkpt><trkpt lat="45.64837125425626" lon="13.88684205328846"><ele>457.42857142857144</ele><time>2026-04-23T15:26:57Z</time></trkpt><trkpt lat="45.64832827495536" lon="13.88692195897756"><ele>458.71428571428567</ele><time>2026-04-23T15:27:05Z</time></trkpt><trkpt lat="45.64830853252348" lon="13.88701603685928"><ele>459.99999999999994</ele><time>2026-04-23T15:27:13.001Z</time></trkpt><trkpt lat="45.648294354462806" lon="13.887104641587673"><ele>461.2857142857142</ele><time>2026-04-23T15:27:21.001Z</time></trkpt><trkpt lat="45.64830271066508" lon="13.887194677309818"><ele>462.57142857142856</ele><time>2026-04-23T15:27:28Z</time></trkpt><trkpt lat="45.64830383906996" lon="13.887287037248697"><ele>463.85714285714283</ele><time>2026-04-23T15:27:34Z</time></trkpt><trkpt lat="45.64834376043248" lon="13.88736397079916"><ele>465.1428571428571</ele><time>2026-04-23T15:27:39Z</time></trkpt><trkpt lat="45.64839719472033" lon="13.887428572717912"><ele>466.42857142857144</ele><time>2026-04-23T15:27:44Z</time></trkpt><trkpt lat="45.648442057420446" lon="13.887497137618627"><ele>467.7142857142857</ele><time>2026-04-23T15:27:50Z</time></trkpt><trkpt lat="45.64848671069961" lon="13.887572205291079"><ele>469.0</ele><time>2026-04-23T15:27:57Z</time></trkpt><trkpt lat="45.6485356183666" lon="13.88763424887534"><ele>469.8571428571429</ele><time>2026-04-23T15:28:06Z</time></trkpt><trkpt lat="45.648581131129276" lon="13.887700496422811"><ele>470.7142857142857</ele><time>2026-04-23T15:28:11Z</time></trkpt><trkpt lat="45.648629820895174" lon="13.887780458070054"><ele>471.57142857142856</ele><time>2026-04-23T15:28:17Z</time></trkpt><trkpt lat="45.64866693863627" lon="13.887862953429968"><ele>472.42857142857144</ele><time>2026-04-23T15:28:24Z</time></trkpt><trkpt lat="45.648714540235936" lon="13.887933370437043"><ele>473.28571428571433</ele><time>2026-04-23T15:28:30Z</time></trkpt><trkpt lat="45.6487582068839" lon="13.888011777549016"><ele>474.14285714285717</ele><time>2026-04-23T15:28:36Z</time></trkpt><trkpt lat="45.6487926524199" lon="13.88809348968055"><ele>475.0</ele><time>2026-04-23T15:28:42Z</time></trkpt><trkpt lat="45.648816939076234" lon="13.888192068991987"><ele>475.0</ele><time>2026-04-23T15:28:48Z</time></trkpt><trkpt lat="45.648846483253784" lon="13.888272807356502"><ele>475.00000000000006</ele><time>2026-04-23T15:28:55Z</time></trkpt><trkpt lat="45.64888173026215" lon="13.888348598491406"><ele>475.0</ele><time>2026-04-23T15:29:01Z</time></trkpt><trkpt lat="45.6489174696067" lon="13.888430225921603"><ele>475.0</ele><time>2026-04-23T15:29:06Z</time></trkpt><trkpt lat="45.648938845660304" lon="13.888524653170085"><ele>475.00000000000006</ele><time>2026-04-23T15:29:13Z</time></trkpt><trkpt lat="45.64896577705393" lon="13.888618338308953"><ele>475.0</ele><time>2026-04-23T15:29:19.001Z</time></trkpt><trkpt lat="45.64899035459069" lon="13.888701988845037"><ele>475.0</ele><time>2026-04-23T15:29:24.001Z</time></trkpt><trkpt lat="45.64900985767015" lon="13.888788430710601"><ele>477.7142857142857</ele><time>2026-04-23T15:29:30.001Z</time></trkpt><trkpt lat="45.649031985915286" lon="13.888880430400112"><ele>480.42857142857144</ele><time>2026-04-23T15:29:37.001Z</time></trkpt><trkpt lat="45.64901419397323" lon="13.888977919133296"><ele>483.14285714285717</ele><time>2026-04-23T15:29:49Z</time></trkpt><trkpt lat="45.64899750121766" lon="13.88907741378093"><ele>485.8571428571429</ele><time>2026-04-23T15:29:56Z</time></trkpt><trkpt lat="45.6490087037431" lon="13.889179726626482"><ele>488.57142857142856</ele><time>2026-04-23T15:30:02Z</time></trkpt><trkpt lat="45.64904915255463" lon="13.88926317501748"><ele>491.28571428571433</ele><time>2026-04-23T15:30:10Z</time></trkpt><trkpt lat="45.64910766027273" lon="13.889307771138753"><ele>494.0</ele><time>2026-04-23T15:30:16Z</time></trkpt><trkpt lat="45.649170762417555" lon="13.889330613216078"><ele>496.42857142857144</ele><time>2026-04-23T15:30:25Z</time></trkpt><trkpt lat="45.64923833287279" lon="13.889346096944022"><ele>498.85714285714283</ele><time>2026-04-23T15:30:55Z</time></trkpt><trkpt lat="45.649283078627" lon="13.88942374762405"><ele>501.2857142857143</ele><time>2026-04-23T15:31:03Z</time></trkpt><trkpt lat="45.64932318545381" lon="13.889500738059924"><ele>503.7142857142857</ele><time>2026-04-23T15:31:09Z</time></trkpt><trkpt lat="45.64935842637291" lon="13.889575548589601"><ele>506.1428571428571</ele><time>2026-04-23T15:31:16Z</time></trkpt><trkpt lat="45.64937419411585" lon="13.889675382058266"><ele>508.57142857142856</ele><time>2026-04-23T15:31:22Z</time></trkpt><trkpt lat="45.649396455345226" lon="13.889781085567721"><ele>511.0</ele><time>2026-04-23T15:31:28.001Z</time></trkpt><trkpt lat="45.649412955124276" lon="13.889869074151845"><ele>511.0</ele><time>2026-04-23T15:31:34.001Z</time></trkpt><trkpt lat="45.6494313665809" lon="13.889957596373378"><ele>511.0</ele><time>2026-04-23T15:31:41.001Z</time></trkpt><trkpt lat="45.649451254310854" lon="13.89004457727513"><ele>511.0</ele><time>2026-04-23T15:31:49Z</time></trkpt><trkpt lat="45.64946833452616" lon="13.890133702764105"><ele>511.0</ele><time>2026-04-23T15:31:56Z</time></trkpt><trkpt lat="45.64949723733585" lon="13.890220634631058"><ele>511.0</ele><time>2026-04-23T15:32:02.999Z</time></trkpt><trkpt lat="45.64951253040649" lon="13.890323141959806"><ele>511.0</ele><time>2026-04-23T15:32:10.999Z</time></trkpt><trkpt lat="45.64952361565022" lon="13.890431978450552"><ele>511.0</ele><time>2026-04-23T15:32:17.999Z</time></trkpt><trkpt lat="45.649533121384614" lon="13.89052172195178"><ele>510.57142857142856</ele><time>2026-04-23T15:32:24.999Z</time></trkpt><trkpt lat="45.64954957650423" lon="13.890612009762341"><ele>510.1428571428571</ele><time>2026-04-23T15:32:30.999Z</time></trkpt><trkpt lat="45.64955545005855" lon="13.890715492376208"><ele>509.7142857142857</ele><time>2026-04-23T15:32:38.999Z</time></trkpt><trkpt lat="45.649569711097044" lon="13.890804421543113"><ele>509.2857142857143</ele><time>2026-04-23T15:32:46.999Z</time></trkpt><trkpt lat="45.64958353682315" lon="13.890898000148374"><ele>508.85714285714283</ele><time>2026-04-23T15:32:55.999Z</time></trkpt><trkpt lat="45.64961048290114" lon="13.891003615419967"><ele>508.42857142857144</ele><time>2026-04-23T15:33:04.999Z</time></trkpt><trkpt lat="45.649610918698194" lon="13.891111202650848"><ele>508.0</ele><time>2026-04-23T15:33:10.999Z</time></trkpt><trkpt lat="45.6496139106147" lon="13.891213442736747"><ele>509.28571428571433</ele><time>2026-04-23T15:33:18.999Z</time></trkpt><trkpt lat="45.6496217929889" lon="13.891311323538545"><ele>510.57142857142856</ele><time>2026-04-23T15:33:25.999Z</time></trkpt><trkpt lat="45.649620447947335" lon="13.891401789822673"><ele>511.8571428571429</ele><time>2026-04-23T15:33:34Z</time></trkpt><trkpt lat="45.64962465252008" lon="13.891501393652513"><ele>513.1428571428571</ele><time>2026-04-23T15:33:41Z</time></trkpt><trkpt lat="45.64964580936544" lon="13.89158678268933"><ele>514.4285714285714</ele><time>2026-04-23T15:33:47Z</time></trkpt><trkpt lat="45.649627563712585" lon="13.891675278032482"><ele>515.7142857142858</ele><time>2026-04-23T15:33:54Z</time></trkpt><trkpt lat="45.64963277057625" lon="13.89177144638779"><ele>517.0</ele><time>2026-04-23T15:34:04.999Z</time></trkpt><trkpt lat="45.64964068141067" lon="13.89187549402011"><ele>517.8571428571429</ele><time>2026-04-23T15:34:12.999Z</time></trkpt><trkpt lat="45.649653345885575" lon="13.891968361671594"><ele>518.7142857142858</ele><time>2026-04-23T15:34:20.999Z</time></trkpt><trkpt lat="45.64965543737052" lon="13.892058870454019"><ele>519.5714285714286</ele><time>2026-04-23T15:34:28.999Z</time></trkpt><trkpt lat="45.64965606061576" lon="13.892157605493354"><ele>520.4285714285714</ele><time>2026-04-23T15:34:34.999Z</time></trkpt><trkpt lat="45.649652887849996" lon="13.892251858855191"><ele>521.2857142857142</ele><time>2026-04-23T15:34:43.999Z</time></trkpt><trkpt lat="45.64966334258848" lon="13.892346986700817"><ele>522.1428571428571</ele><time>2026-04-23T15:34:54.999Z</time></trkpt><trkpt lat="45.649666500220945" lon="13.892447532760984"><ele>523.0</ele><time>2026-04-23T15:35:00.999Z</time></trkpt><trkpt lat="45.64965501605178" lon="13.89253891301663"><ele>523.9999999999999</ele><time>2026-04-23T15:35:07.999Z</time></trkpt><trkpt lat="45.64965988625113" lon="13.89263538415404"><ele>525.0</ele><time>2026-04-23T15:35:14.999Z</time></trkpt><trkpt lat="45.64967396678617" lon="13.892723198142388"><ele>526.0</ele><time>2026-04-23T15:35:19.999Z</time></trkpt><trkpt lat="45.64965933083082" lon="13.892812095073625"><ele>527.0</ele><time>2026-04-23T15:35:49Z</time></trkpt><trkpt lat="45.64966487749959" lon="13.892904633954208"><ele>528.0</ele><time>2026-04-23T15:35:58Z</time></trkpt><trkpt lat="45.64966406385378" lon="13.893002011567969"><ele>528.9999999999999</ele><time>2026-04-23T15:36:04Z</time></trkpt><trkpt lat="45.649668621808054" lon="13.893094557588583"><ele>530.0</ele><time>2026-04-23T15:36:11Z</time></trkpt><trkpt lat="45.64967730293677" lon="13.893200943293898"><ele>529.9999999999999</ele><time>2026-04-23T15:36:17.999Z</time></trkpt><trkpt lat="45.64969286007457" lon="13.893288511409594"><ele>530.0</ele><time>2026-04-23T15:36:25.999Z</time></trkpt><trkpt lat="45.649697543304576" lon="13.893382981678041"><ele>530.0</ele><time>2026-04-23T15:36:32.999Z</time></trkpt><trkpt lat="45.64970235241961" lon="13.89347611639007"><ele>530.0</ele><time>2026-04-23T15:36:38.999Z</time></trkpt><trkpt lat="45.64970365825213" lon="13.893570055731416"><ele>530.0</ele><time>2026-04-23T15:36:46.999Z</time></trkpt><trkpt lat="45.64971020925137" lon="13.89366335472363"><ele>529.9999999999999</ele><time>2026-04-23T15:36:53.999Z</time></trkpt><trkpt lat="45.64971659300603" lon="13.893771202620597"><ele>530.0</ele><time>2026-04-23T15:37:02.999Z</time></trkpt><trkpt lat="45.649729520229734" lon="13.893863205339906"><ele>531.7142857142857</ele><time>2026-04-23T15:37:08.999Z</time></trkpt><trkpt lat="45.64973444065184" lon="13.893957665217544"><ele>533.4285714285714</ele><time>2026-04-23T15:37:16.999Z</time></trkpt><trkpt lat="45.64974445293096" lon="13.894051747653466"><ele>535.1428571428571</ele><time>2026-04-23T15:37:23.999Z</time></trkpt><trkpt lat="45.6497407571415" lon="13.894144184206816"><ele>536.8571428571429</ele><time>2026-04-23T15:37:29.999Z</time></trkpt><trkpt lat="45.64974213882732" lon="13.894244075524668"><ele>538.5714285714286</ele><time>2026-04-23T15:37:37.999Z</time></trkpt><trkpt lat="45.64974068379062" lon="13.894357241417413"><ele>540.2857142857142</ele><time>2026-04-23T15:37:45Z</time></trkpt><trkpt lat="45.64974920086712" lon="13.894459624472386"><ele>542.0</ele><time>2026-04-23T15:37:52Z</time></trkpt><trkpt lat="45.64973856322383" lon="13.894554894190401"><ele>542.1428571428571</ele><time>2026-04-23T15:37:59Z</time></trkpt><trkpt lat="45.64973143473589" lon="13.894652252782835"><ele>542.2857142857143</ele><time>2026-04-23T15:38:05Z</time></trkpt><trkpt lat="45.6497223821601" lon="13.894758488992322"><ele>542.4285714285714</ele><time>2026-04-23T15:38:12Z</time></trkpt><trkpt lat="45.649721814716195" lon="13.89485552076736"><ele>542.5714285714286</ele><time>2026-04-23T15:38:19Z</time></trkpt><trkpt lat="45.64971935807983" lon="13.894954627757514"><ele>542.7142857142857</ele><time>2026-04-23T15:38:24.999Z</time></trkpt><trkpt lat="45.64970448484929" lon="13.895061159691693"><ele>542.8571428571429</ele><time>2026-04-23T15:38:29.999Z</time></trkpt><trkpt lat="45.649689075231954" lon="13.895160260764506"><ele>543.0</ele><time>2026-04-23T15:38:35.999Z</time></trkpt><trkpt lat="45.649665465168724" lon="13.895244379703241"><ele>543.0</ele><time>2026-04-23T15:38:42.999Z</time></trkpt><trkpt lat="45.64960087448196" lon="13.89527523588695"><ele>543.0</ele><time>2026-04-23T15:38:51.999Z</time></trkpt><trkpt lat="45.64956171633166" lon="13.895178895134697"><ele>543.0</ele><time>2026-04-23T15:38:58.999Z</time></trkpt><trkpt lat="45.64954377277359" lon="13.89509005958253"><ele>543.0</ele><time>2026-04-23T15:39:04.999Z</time></trkpt><trkpt lat="45.64951084960356" lon="13.895011958875747"><ele>543.0</ele><time>2026-04-23T15:39:10.999Z</time></trkpt><trkpt lat="45.64949578864699" lon="13.894923117811654"><ele>543.0</ele><time>2026-04-23T15:39:18.999Z</time></trkpt><trkpt lat="45.64946307543691" lon="13.894839398232092"><ele>543.0</ele><time>2026-04-23T15:39:25.999Z</time></trkpt><trkpt lat="45.64942727232731" lon="13.894761923589027"><ele>545.4285714285714</ele><time>2026-04-23T15:39:31.999Z</time></trkpt><trkpt lat="45.64939539935434" lon="13.894679363732346"><ele>547.8571428571429</ele><time>2026-04-23T15:39:37.999Z</time></trkpt><trkpt lat="45.649368749482576" lon="13.894571954333967"><ele>550.2857142857142</ele><time>2026-04-23T15:39:43.999Z</time></trkpt><trkpt lat="45.64933588764127" lon="13.894491203222247"><ele>552.7142857142858</ele><time>2026-04-23T15:39:48Z</time></trkpt><trkpt lat="45.649313321875816" lon="13.894406420074759"><ele>555.1428571428571</ele><time>2026-04-23T15:39:53Z</time></trkpt><trkpt lat="45.649276073181035" lon="13.894319259940922"><ele>557.5714285714286</ele><time>2026-04-23T15:39:59Z</time></trkpt><trkpt lat="45.64924329473598" lon="13.89423865310254"><ele>560.0</ele><time>2026-04-23T15:40:05Z</time></trkpt><trkpt lat="45.64920382344381" lon="13.894155172573548"><ele>560.0</ele><time>2026-04-23T15:40:11Z</time></trkpt><trkpt lat="45.649161746224664" lon="13.894080197133368"><ele>560.0</ele><time>2026-04-23T15:40:17Z</time></trkpt><trkpt lat="45.64912941571899" lon="13.893994959733131"><ele>560.0</ele><time>2026-04-23T15:40:24Z</time></trkpt><trkpt lat="45.649092335397434" lon="13.893904700473158"><ele>560.0</ele><time>2026-04-23T15:40:30Z</time></trkpt><trkpt lat="45.649063893415885" lon="13.89380762841174"><ele>560.0</ele><time>2026-04-23T15:40:35.999Z</time></trkpt><trkpt lat="45.64903709563116" lon="13.89371515057984"><ele>560.0</ele><time>2026-04-23T15:40:40.999Z</time></trkpt><trkpt lat="45.649002816027085" lon="13.893639060724572"><ele>560.0</ele><time>2026-04-23T15:40:45.999Z</time></trkpt><trkpt lat="45.64896435393419" lon="13.893560223185402"><ele>560.0</ele><time>2026-04-23T15:40:51.999Z</time></trkpt><trkpt lat="45.648912959184614" lon="13.89350084151383"><ele>560.0</ele><time>2026-04-23T15:40:56.999Z</time></trkpt><trkpt lat="45.64885393766659" lon="13.893462656660565"><ele>560.0</ele><time>2026-04-23T15:41:02.999Z</time></trkpt><trkpt lat="45.64881656055807" lon="13.89354971541433"><ele>560.0</ele><time>2026-04-23T15:41:09.999Z</time></trkpt><trkpt lat="45.64880850505449" lon="13.893652225887886"><ele>560.0</ele><time>2026-04-23T15:41:15.999Z</time></trkpt><trkpt lat="45.64882328349325" lon="13.893750707939123"><ele>560.0</ele><time>2026-04-23T15:41:20.999Z</time></trkpt><trkpt lat="45.648853090820126" lon="13.893840661908728"><ele>560.0</ele><time>2026-04-23T15:41:26.999Z</time></trkpt><trkpt lat="45.64888918552904" lon="13.893924569826664"><ele>560.0</ele><time>2026-04-23T15:41:32.999Z</time></trkpt><trkpt lat="45.64890848072681" lon="13.894018512549662"><ele>560.0</ele><time>2026-04-23T15:41:40.999Z</time></trkpt><trkpt lat="45.64891724868035" lon="13.894118381157769"><ele>560.0</ele><time>2026-04-23T15:42:27Z</time></trkpt><trkpt lat="45.64889731940218" lon="13.894221891190822"><ele>560.0</ele><time>2026-04-23T15:42:33Z</time></trkpt><trkpt lat="45.64890122509304" lon="13.894317885626384"><ele>560.0</ele><time>2026-04-23T15:42:39Z</time></trkpt><trkpt lat="45.64891904112155" lon="13.89440742948726"><ele>560.0</ele><time>2026-04-23T15:42:46Z</time></trkpt><trkpt lat="45.648914741634954" lon="13.894499063993356"><ele>560.0</ele><time>2026-04-23T15:42:50.999Z</time></trkpt><trkpt lat="45.64891428688087" lon="13.894594167615274"><ele>560.4285714285714</ele><time>2026-04-23T15:42:57.999Z</time></trkpt><trkpt lat="45.648903499580186" lon="13.89468339485094"><ele>560.8571428571429</ele><time>2026-04-23T15:43:05.999Z</time></trkpt><trkpt lat="45.64889224936404" lon="13.894772724397505"><ele>561.2857142857142</ele><time>2026-04-23T15:43:11.999Z</time></trkpt><trkpt lat="45.648904101402806" lon="13.894870007075886"><ele>561.7142857142858</ele><time>2026-04-23T15:43:18.999Z</time></trkpt><trkpt lat="45.64888670542055" lon="13.894969109705784"><ele>562.1428571428571</ele><time>2026-04-23T15:43:25.999Z</time></trkpt><trkpt lat="45.64886105648689" lon="13.8950712523811"><ele>562.5714285714286</ele><time>2026-04-23T15:43:32.999Z</time></trkpt><trkpt lat="45.64885044389894" lon="13.895164876468494"><ele>563.0</ele><time>2026-04-23T15:43:39.999Z</time></trkpt><trkpt lat="45.6488227143486" lon="13.895248972907515"><ele>563.0</ele><time>2026-04-23T15:43:46.999Z</time></trkpt><trkpt lat="45.64876912571417" lon="13.895304927963274"><ele>563.0</ele><time>2026-04-23T15:43:54.999Z</time></trkpt><trkpt lat="45.64874581456822" lon="13.895220185862588"><ele>563.0</ele><time>2026-04-23T15:44:02Z</time></trkpt><trkpt lat="45.648724312451094" lon="13.895122188104185"><ele>563.0</ele><time>2026-04-23T15:44:10Z</time></trkpt><trkpt lat="45.64872075040912" lon="13.895027888642185"><ele>563.0</ele><time>2026-04-23T15:44:18Z</time></trkpt><trkpt lat="45.648708855886646" lon="13.894928512432244"><ele>563.0</ele><time>2026-04-23T15:44:25Z</time></trkpt><trkpt lat="45.64867654439164" lon="13.894849348400275"><ele>563.0</ele><time>2026-04-23T15:44:30Z</time></trkpt><trkpt lat="45.64865407592378" lon="13.894758378791368"><ele>565.5714285714286</ele><time>2026-04-23T15:44:36Z</time></trkpt><trkpt lat="45.64862274604967" lon="13.894666895207905"><ele>568.1428571428571</ele><time>2026-04-23T15:44:42Z</time></trkpt><trkpt lat="45.648581507105355" lon="13.894588810116963"><ele>570.7142857142858</ele><time>2026-04-23T15:44:46Z</time></trkpt><trkpt lat="45.6485473353036" lon="13.894502853932043"><ele>573.2857142857142</ele><time>2026-04-23T15:44:51Z</time></trkpt><trkpt lat="45.64851630332479" lon="13.894413642746336"><ele>575.8571428571429</ele><time>2026-04-23T15:44:56Z</time></trkpt><trkpt lat="45.648471736264305" lon="13.894331043874947"><ele>578.4285714285714</ele><time>2026-04-23T15:45:02Z</time></trkpt><trkpt lat="45.64843167458356" lon="13.894254421970837"><ele>581.0</ele><time>2026-04-23T15:45:07.999Z</time></trkpt><trkpt lat="45.64838801498053" lon="13.894178572729897"><ele>581.0</ele><time>2026-04-23T15:45:14.999Z</time></trkpt><trkpt lat="45.64834766839201" lon="13.894108520429226"><ele>581.0</ele><time>2026-04-23T15:45:20.999Z</time></trkpt><trkpt lat="45.64829278251472" lon="13.89405230941064"><ele>581.0</ele><time>2026-04-23T15:45:26.999Z</time></trkpt><trkpt lat="45.64823614550016" lon="13.893984262656987"><ele>581.0</ele><time>2026-04-23T15:45:33.999Z</time></trkpt><trkpt lat="45.648181698856654" lon="13.893920901268013"><ele>581.0</ele><time>2026-04-23T15:45:39.999Z</time></trkpt><trkpt lat="45.64813127317186" lon="13.893844524308678"><ele>581.0</ele><time>2026-04-23T15:45:46.999Z</time></trkpt><trkpt lat="45.64808156533036" lon="13.893769711526575"><ele>581.0</ele><time>2026-04-23T15:45:53.999Z</time></trkpt><trkpt lat="45.64802267739688" lon="13.893726731718724"><ele>581.0</ele><time>2026-04-23T15:45:58.999Z</time></trkpt><trkpt lat="45.64797578491688" lon="13.89366138800139"><ele>581.0</ele><time>2026-04-23T15:46:07Z</time></trkpt><trkpt lat="45.6479357766796" lon="13.893584968094817"><ele>581.0</ele><time>2026-04-23T15:46:13Z</time></trkpt><trkpt lat="45.64788872220823" lon="13.89352337898671"><ele>581.0</ele><time>2026-04-23T15:46:20Z</time></trkpt><trkpt lat="45.64783743677986" lon="13.893456826820765"><ele>581.0</ele><time>2026-04-23T15:46:27Z</time></trkpt><trkpt lat="45.64779088470633" lon="13.893390577282815"><ele>581.0</ele><time>2026-04-23T15:46:34Z</time></trkpt><trkpt lat="45.64772038113367" lon="13.893356170447358"><ele>581.0</ele><time>2026-04-23T15:46:41Z</time></trkpt><trkpt lat="45.6476791590845" lon="13.89342569304648"><ele>581.0</ele><time>2026-04-23T15:46:47Z</time></trkpt><trkpt lat="45.64768455613399" lon="13.893522158900872"><ele>581.0</ele><time>2026-04-23T15:46:53Z</time></trkpt><trkpt lat="45.64770203276288" lon="13.893621738451433"><ele>581.0</ele><time>2026-04-23T15:46:58Z</time></trkpt><trkpt lat="45.64773496516516" lon="13.893708495035236"><ele>581.0</ele><time>2026-04-23T15:47:03Z</time></trkpt><trkpt lat="45.64776531607036" lon="13.8937876777166"><ele>581.0</ele><time>2026-04-23T15:47:08Z</time></trkpt><trkpt lat="45.647775199048624" lon="13.893889325018952"><ele>581.0</ele><time>2026-04-23T15:47:13Z</time></trkpt><trkpt lat="45.647806146602946" lon="13.89397404513339"><ele>581.0</ele><time>2026-04-23T15:47:18.999Z</time></trkpt><trkpt lat="45.64782789804418" lon="13.89407698947252"><ele>581.0</ele><time>2026-04-23T15:47:24.999Z</time></trkpt><trkpt lat="45.6478462676585" lon="13.894178284531513"><ele>581.0</ele><time>2026-04-23T15:47:29.999Z</time></trkpt><trkpt lat="45.64786886063847" lon="13.894270151862024"><ele>581.0</ele><time>2026-04-23T15:47:35.999Z</time></trkpt><trkpt lat="45.64787270614196" lon="13.894372999051347"><ele>581.0</ele><time>2026-04-23T15:47:41.999Z</time></trkpt><trkpt lat="45.647892443651614" lon="13.894459477734983"><ele>581.0</ele><time>2026-04-23T15:47:48.999Z</time></trkpt><trkpt lat="45.64792024685989" lon="13.894546517190513"><ele>581.0</ele><time>2026-04-23T15:47:54.999Z</time></trkpt><trkpt lat="45.64792779678405" lon="13.894655378910608"><ele>581.0</ele><time>2026-04-23T15:48:00.999Z</time></trkpt><trkpt lat="45.64794248617382" lon="13.89475734440294"><ele>581.2857142857143</ele><time>2026-04-23T15:48:06.999Z</time></trkpt><trkpt lat="45.647953497231214" lon="13.89485613519323"><ele>581.5714285714286</ele><time>2026-04-23T15:48:13Z</time></trkpt><trkpt lat="45.647946968939415" lon="13.894963835439293"><ele>581.8571428571429</ele><time>2026-04-23T15:48:19Z</time></trkpt><trkpt lat="45.647950817616376" lon="13.895053751412915"><ele>582.1428571428571</ele><time>2026-04-23T15:48:24Z</time></trkpt><trkpt lat="45.647947092636436" lon="13.895159330768475"><ele>582.4285714285714</ele><time>2026-04-23T15:48:29Z</time></trkpt><trkpt lat="45.64795036318664" lon="13.895251226026055"><ele>582.7142857142858</ele><time>2026-04-23T15:48:34Z</time></trkpt><trkpt lat="45.64794232539907" lon="13.895358580672237"><ele>583.0</ele><time>2026-04-23T15:48:41Z</time></trkpt><trkpt lat="45.64788338990456" lon="13.895416166454266"><ele>583.0000000000001</ele><time>2026-04-23T15:48:48Z</time></trkpt><trkpt lat="45.64781920622984" lon="13.895384374980816"><ele>583.0</ele><time>2026-04-23T15:48:55Z</time></trkpt><trkpt lat="45.6478060502515" lon="13.89529488495591"><ele>583.0</ele><time>2026-04-23T15:49:01Z</time></trkpt><trkpt lat="45.647815519344924" lon="13.895194487521431"><ele>583.0</ele><time>2026-04-23T15:49:08Z</time></trkpt><trkpt lat="45.64779190732701" lon="13.895090758526466"><ele>583.0</ele><time>2026-04-23T15:49:14Z</time></trkpt><trkpt lat="45.6477749126914" lon="13.894993524254657"><ele>583.0000000000001</ele><time>2026-04-23T15:49:20Z</time></trkpt><trkpt lat="45.647736544812226" lon="13.894920934740378"><ele>583.0</ele><time>2026-04-23T15:49:25Z</time></trkpt><trkpt lat="45.64770959164076" lon="13.894827898196482"><ele>587.1428571428572</ele><time>2026-04-23T15:49:33Z</time></trkpt><trkpt lat="45.64767106323654" lon="13.894739164301619"><ele>591.2857142857143</ele><time>2026-04-23T15:49:37.999Z</time></trkpt><trkpt lat="45.64764213872248" lon="13.894653323006501"><ele>595.4285714285714</ele><time>2026-04-23T15:49:42.999Z</time></trkpt><trkpt lat="45.64760733692791" lon="13.894560946821247"><ele>599.5714285714287</ele><time>2026-04-23T15:49:48.999Z</time></trkpt><trkpt lat="45.647577433229074" lon="13.89447115138047"><ele>603.7142857142858</ele><time>2026-04-23T15:49:54.999Z</time></trkpt><trkpt lat="45.647535551704266" lon="13.894389655153963"><ele>607.8571428571429</ele><time>2026-04-23T15:49:59.999Z</time></trkpt><trkpt lat="45.64748642653503" lon="13.894325500197287"><ele>612.0</ele><time>2026-04-23T15:50:04.999Z</time></trkpt><trkpt lat="45.64742475741517" lon="13.894273341584089"><ele>612.0</ele><time>2026-04-23T15:50:10.999Z</time></trkpt><trkpt lat="45.64736937010577" lon="13.894226016603204"><ele>612.0</ele><time>2026-04-23T15:50:18Z</time></trkpt><trkpt lat="45.64730370301673" lon="13.894169563872671"><ele>612.0</ele><time>2026-04-23T15:50:25Z</time></trkpt><trkpt lat="45.6472472165138" lon="13.894125990662188"><ele>612.0</ele><time>2026-04-23T15:50:31Z</time></trkpt><trkpt lat="45.64718367837467" lon="13.894159959952752"><ele>612.0</ele><time>2026-04-23T15:50:38Z</time></trkpt><trkpt lat="45.647160878572315" lon="13.894266559455707"><ele>612.0</ele><time>2026-04-23T15:50:46Z</time></trkpt><trkpt lat="45.64713945038042" lon="13.894351629681378"><ele>612.0</ele><time>2026-04-23T15:50:53Z</time></trkpt><trkpt lat="45.647111279389776" lon="13.894442473526208"><ele>612.0</ele><time>2026-04-23T15:51:01Z</time></trkpt><trkpt lat="45.647110363510635" lon="13.894532559620377"><ele>612.0</ele><time>2026-04-23T15:51:14Z</time></trkpt><trkpt lat="45.647107549375896" lon="13.894622708618744"><ele>612.0</ele><time>2026-04-23T15:51:24Z</time></trkpt><trkpt lat="45.64710212637976" lon="13.894723250683521"><ele>612.0</ele><time>2026-04-23T15:51:31Z</time></trkpt><trkpt lat="45.647072101336036" lon="13.894811832296224"><ele>612.0</ele><time>2026-04-23T15:51:38Z</time></trkpt><trkpt lat="45.64705435466153" lon="13.89489879557874"><ele>612.0</ele><time>2026-04-23T15:51:47Z</time></trkpt><trkpt lat="45.647035198857786" lon="13.894985502840767"><ele>612.0</ele><time>2026-04-23T15:51:54.999Z</time></trkpt><trkpt lat="45.64702384976133" lon="13.895074943712975"><ele>611.1428571428571</ele><time>2026-04-23T15:52:04.999Z</time></trkpt><trkpt lat="45.646990142477534" lon="13.895160584962154"><ele>610.2857142857143</ele><time>2026-04-23T15:52:12.999Z</time></trkpt><trkpt lat="45.64693681956352" lon="13.895223694284732"><ele>609.4285714285714</ele><time>2026-04-23T15:52:23Z</time></trkpt><trkpt lat="45.64689479130573" lon="13.89530735631819"><ele>608.5714285714286</ele><time>2026-04-23T15:52:34Z</time></trkpt><trkpt lat="45.64682967245668" lon="13.895357711174867"><ele>607.7142857142857</ele><time>2026-04-23T15:52:43Z</time></trkpt><trkpt lat="45.64677611048081" lon="13.89543095654785"><ele>606.8571428571429</ele><time>2026-04-23T15:52:50Z</time></trkpt><trkpt lat="45.64672545491821" lon="13.895487847729465"><ele>606.0</ele><time>2026-04-23T15:52:57Z</time></trkpt><trkpt lat="45.64667086983692" lon="13.895542348608592"><ele>606.2857142857143</ele><time>2026-04-23T15:53:05Z</time></trkpt><trkpt lat="45.6466216980732" lon="13.895619590984472"><ele>606.5714285714286</ele><time>2026-04-23T15:53:13Z</time></trkpt><trkpt lat="45.64655906361312" lon="13.895648707021"><ele>606.8571428571429</ele><time>2026-04-23T15:53:20Z</time></trkpt><trkpt lat="45.646504098382295" lon="13.895696049539554"><ele>607.1428571428571</ele><time>2026-04-23T15:53:26Z</time></trkpt><trkpt lat="45.64645235792594" lon="13.895758374377198"><ele>607.4285714285714</ele><time>2026-04-23T15:53:31Z</time></trkpt><trkpt lat="45.64641430997823" lon="13.895852051089875"><ele>607.7142857142857</ele><time>2026-04-23T15:53:53Z</time></trkpt><trkpt lat="45.64635755390291" lon="13.895907240912152"><ele>608.0</ele><time>2026-04-23T15:53:58Z</time></trkpt><trkpt lat="45.64629968635268" lon="13.895951329500306"><ele>608.0</ele><time>2026-04-23T15:54:03.999Z</time></trkpt><trkpt lat="45.64623996808267" lon="13.895993317747886"><ele>608.0</ele><time>2026-04-23T15:54:08.999Z</time></trkpt><trkpt lat="45.64617453376745" lon="13.89603059743409"><ele>608.0</ele><time>2026-04-23T15:54:14.999Z</time></trkpt><trkpt lat="45.64609863566472" lon="13.896033038722932"><ele>608.0</ele><time>2026-04-23T15:54:22.999Z</time></trkpt><trkpt lat="45.64602509202143" lon="13.896027922132083"><ele>608.0</ele><time>2026-04-23T15:54:30Z</time></trkpt><trkpt lat="45.64595616908697" lon="13.896045607750887"><ele>608.0</ele><time>2026-04-23T15:54:36Z</time></trkpt><trkpt lat="45.64588245789072" lon="13.896045101586532"><ele>608.0</ele><time>2026-04-23T15:54:42Z</time></trkpt><trkpt lat="45.64581400773808" lon="13.896055391677075"><ele>611.0</ele><time>2026-04-23T15:54:50Z</time></trkpt><trkpt lat="45.64575144772197" lon="13.896083814056174"><ele>614.0</ele><time>2026-04-23T15:54:59Z</time></trkpt><trkpt lat="45.64568120839361" lon="13.896078827000753"><ele>617.0</ele><time>2026-04-23T15:55:08Z</time></trkpt><trkpt lat="45.64563607514372" lon="13.896147712367886"><ele>620.0</ele><time>2026-04-23T15:55:40Z</time></trkpt><trkpt lat="45.645569216892525" lon="13.896132271011014"><ele>623.0</ele><time>2026-04-23T15:55:49Z</time></trkpt><trkpt lat="45.64549696628432" lon="13.896149658195382"><ele>626.0</ele><time>2026-04-23T15:55:55Z</time></trkpt><trkpt lat="45.645436083984144" lon="13.896175234192254"><ele>629.0</ele><time>2026-04-23T15:56:01Z</time></trkpt><trkpt lat="45.64537311726417" lon="13.896232025184041"><ele>629.0</ele><time>2026-04-23T15:56:09Z</time></trkpt><trkpt lat="45.645322660396765" lon="13.896291192304798"><ele>629.0</ele><time>2026-04-23T15:56:17Z</time></trkpt><trkpt lat="45.64525421544574" lon="13.896328889551114"><ele>629.0</ele><time>2026-04-23T15:56:24.999Z</time></trkpt><trkpt lat="45.64518658784628" lon="13.89637403729109"><ele>629.0</ele><time>2026-04-23T15:56:34Z</time></trkpt><trkpt lat="45.645120308762635" lon="13.896420022236914"><ele>629.0</ele><time>2026-04-23T15:56:41Z</time></trkpt><trkpt lat="45.64505868159349" lon="13.89646186689703"><ele>629.0</ele><time>2026-04-23T15:56:49Z</time></trkpt><trkpt lat="45.645012976043404" lon="13.896534919927522"><ele>629.0</ele><time>2026-04-23T15:56:57Z</time></trkpt><trkpt lat="45.64497049599956" lon="13.896604234260925"><ele>632.2857142857142</ele><time>2026-04-23T15:57:06Z</time></trkpt><trkpt lat="45.64492707998064" lon="13.896682029844786"><ele>635.5714285714287</ele><time>2026-04-23T15:57:23Z</time></trkpt><trkpt lat="45.64489641173961" lon="13.896764184407857"><ele>638.8571428571429</ele><time>2026-04-23T15:57:31Z</time></trkpt><trkpt lat="45.64488066678778" lon="13.89686328172974"><ele>642.1428571428571</ele><time>2026-04-23T15:57:39Z</time></trkpt><trkpt lat="45.64486666503104" lon="13.896953430173165"><ele>645.4285714285713</ele><time>2026-04-23T15:57:44Z</time></trkpt><trkpt lat="45.64489104287861" lon="13.897056227656186"><ele>648.7142857142858</ele><time>2026-04-23T15:57:50Z</time></trkpt><trkpt lat="45.64489470768802" lon="13.897150751350798"><ele>652.0</ele><time>2026-04-23T15:57:56Z</time></trkpt><trkpt lat="45.64490203769815" lon="13.89724884926963"><ele>652.0</ele><time>2026-04-23T15:58:03Z</time></trkpt><trkpt lat="45.6448899059714" lon="13.897353256754092"><ele>652.0</ele><time>2026-04-23T15:58:08Z</time></trkpt><trkpt lat="45.644847587929384" lon="13.897433980685461"><ele>652.0</ele><time>2026-04-23T15:58:14Z</time></trkpt><trkpt lat="45.64481341667249" lon="13.897514339597148"><ele>652.0</ele><time>2026-04-23T15:58:19Z</time></trkpt><trkpt lat="45.64476153299545" lon="13.897583568895984"><ele>652.0</ele><time>2026-04-23T15:58:25Z</time></trkpt><trkpt lat="45.6447038969537" lon="13.897663694744482"><ele>652.0</ele><time>2026-04-23T15:58:31Z</time></trkpt><trkpt lat="45.644666489719505" lon="13.89774485289509"><ele>652.0</ele><time>2026-04-23T15:58:36Z</time></trkpt><trkpt lat="45.64462212234698" lon="13.897810091001357"><ele>652.0</ele><time>2026-04-23T15:58:41Z</time></trkpt><trkpt lat="45.64458455241634" lon="13.897886972518393"><ele>652.0</ele><time>2026-04-23T15:58:47Z</time></trkpt><trkpt lat="45.64454448544106" lon="13.89795878022998"><ele>652.0</ele><time>2026-04-23T15:58:52Z</time></trkpt><trkpt lat="45.64450413512205" lon="13.89803695191208"><ele>652.0</ele><time>2026-04-23T15:58:58Z</time></trkpt><trkpt lat="45.64446147279154" lon="13.898122474600349"><ele>652.0</ele><time>2026-04-23T15:59:04Z</time></trkpt><trkpt lat="45.64440438990057" lon="13.898180316369873"><ele>652.0</ele><time>2026-04-23T15:59:11Z</time></trkpt><trkpt lat="45.64434595752328" lon="13.898221985277427"><ele>652.0</ele><time>2026-04-23T15:59:18Z</time></trkpt><trkpt lat="45.64428460278436" lon="13.898269037996064"><ele>653.7142857142858</ele><time>2026-04-23T15:59:25Z</time></trkpt><trkpt lat="45.64421944965805" lon="13.89830620426707"><ele>655.4285714285713</ele><time>2026-04-23T15:59:32Z</time></trkpt><trkpt lat="45.6441477415026" lon="13.898306073940562"><ele>657.1428571428571</ele><time>2026-04-23T15:59:39Z</time></trkpt><trkpt lat="45.64408773879061" lon="13.89833621106219"><ele>658.8571428571429</ele><time>2026-04-23T15:59:46Z</time></trkpt><trkpt lat="45.644014264717335" lon="13.898380162656029"><ele>660.5714285714287</ele><time>2026-04-23T16:00:01Z</time></trkpt><trkpt lat="45.643947229003" lon="13.89841096459039"><ele>662.2857142857142</ele><time>2026-04-23T16:00:08Z</time></trkpt><trkpt lat="45.643890340582594" lon="13.898451896305781"><ele>664.0</ele><time>2026-04-23T16:00:14Z</time></trkpt><trkpt lat="45.64382835164658" lon="13.898495691699273"><ele>664.1428571428571</ele><time>2026-04-23T16:00:21Z</time></trkpt><trkpt lat="45.64376911910194" lon="13.898563067008832"><ele>664.2857142857143</ele><time>2026-04-23T16:00:27Z</time></trkpt><trkpt lat="45.643726034109854" lon="13.898636132334586"><ele>664.4285714285714</ele><time>2026-04-23T16:00:34Z</time></trkpt><trkpt lat="45.643679265822264" lon="13.898697607832682"><ele>664.5714285714286</ele><time>2026-04-23T16:00:40Z</time></trkpt><trkpt lat="45.64364437631097" lon="13.898779623294589"><ele>664.7142857142858</ele><time>2026-04-23T16:00:46Z</time></trkpt><trkpt lat="45.643615009132624" lon="13.898865904587064"><ele>664.8571428571429</ele><time>2026-04-23T16:00:52Z</time></trkpt><trkpt lat="45.64358888526295" lon="13.898980165531366"><ele>665.0</ele><time>2026-04-23T16:00:58Z</time></trkpt><trkpt lat="45.64361016917356" lon="13.899073716105047"><ele>665.0</ele><time>2026-04-23T16:01:04Z</time></trkpt><trkpt lat="45.643629140076975" lon="13.899172713712993"><ele>665.0</ele><time>2026-04-23T16:01:11Z</time></trkpt><trkpt lat="45.64367586113448" lon="13.899234433603988"><ele>665.0</ele><time>2026-04-23T16:01:16Z</time></trkpt><trkpt lat="45.64372922321465" lon="13.89931435081896"><ele>665.0</ele><time>2026-04-23T16:01:22Z</time></trkpt><trkpt lat="45.64377177662058" lon="13.899390928125"><ele>665.0</ele><time>2026-04-23T16:01:27Z</time></trkpt><trkpt lat="45.64382302678693" lon="13.899460903797968"><ele>665.0</ele><time>2026-04-23T16:01:32Z</time></trkpt><trkpt lat="45.64385371625836" lon="13.899553964346564"><ele>665.0</ele><time>2026-04-23T16:01:38Z</time></trkpt><trkpt lat="45.64390567907456" lon="13.89962080783373"><ele>665.4285714285714</ele><time>2026-04-23T16:01:45Z</time></trkpt><trkpt lat="45.643962139401516" lon="13.899679022109385"><ele>665.8571428571429</ele><time>2026-04-23T16:01:51Z</time></trkpt><trkpt lat="45.644038647051154" lon="13.899714230513416"><ele>666.2857142857142</ele><time>2026-04-23T16:01:57Z</time></trkpt><trkpt lat="45.64409751277773" lon="13.89977287609357"><ele>666.7142857142858</ele><time>2026-04-23T16:02:03Z</time></trkpt><trkpt lat="45.64415797089405" lon="13.899813197311856"><ele>667.1428571428571</ele><time>2026-04-23T16:02:09Z</time></trkpt><trkpt lat="45.644215744693454" lon="13.899856041128096"><ele>667.5714285714286</ele><time>2026-04-23T16:02:14Z</time></trkpt><trkpt lat="45.644272866334134" lon="13.899906993982983"><ele>668.0</ele><time>2026-04-23T16:02:19Z</time></trkpt><trkpt lat="45.64432745811426" lon="13.899969445877405"><ele>668.0</ele><time>2026-04-23T16:02:25Z</time></trkpt><trkpt lat="45.64425646873617" lon="13.899976741022867"><ele>668.0</ele><time>2026-04-23T16:09:42Z</time></trkpt><trkpt lat="45.64420210364186" lon="13.899896143005018"><ele>668.0</ele><time>2026-04-23T16:09:49Z</time></trkpt><trkpt lat="45.64414579104144" lon="13.899822074829288"><ele>668.0</ele><time>2026-04-23T16:09:54.999Z</time></trkpt><trkpt lat="45.64407523454916" lon="13.899777946043654"><ele>668.0</ele><time>2026-04-23T16:09:59.999Z</time></trkpt><trkpt lat="45.64402031830406" lon="13.899725657506353"><ele>668.0</ele><time>2026-04-23T16:10:05.999Z</time></trkpt><trkpt lat="45.64395050518479" lon="13.89970518575776"><ele>668.0</ele><time>2026-04-23T16:10:11.999Z</time></trkpt><trkpt lat="45.64390055677865" lon="13.899646639768967"><ele>668.0</ele><time>2026-04-23T16:10:16.999Z</time></trkpt><trkpt lat="45.64385696646034" lon="13.899577769335355"><ele>668.0</ele><time>2026-04-23T16:10:21.999Z</time></trkpt><trkpt lat="45.64379987020481" lon="13.899526475243254"><ele>668.0</ele><time>2026-04-23T16:10:27.999Z</time></trkpt><trkpt lat="45.64375668426636" lon="13.899445926262537"><ele>668.0</ele><time>2026-04-23T16:10:33.999Z</time></trkpt><trkpt lat="45.64371413461293" lon="13.899363041157013"><ele>668.0</ele><time>2026-04-23T16:10:39.999Z</time></trkpt><trkpt lat="45.64366562316673" lon="13.89928592556075"><ele>668.0</ele><time>2026-04-23T16:10:45.999Z</time></trkpt><trkpt lat="45.643619946036644" lon="13.899208519089147"><ele>668.0</ele><time>2026-04-23T16:10:51.999Z</time></trkpt><trkpt lat="45.64358531168879" lon="13.899128554408614"><ele>667.5714285714286</ele><time>2026-04-23T16:10:56.999Z</time></trkpt><trkpt lat="45.64356075255782" lon="13.899045382495148"><ele>667.1428571428571</ele><time>2026-04-23T16:11:01.999Z</time></trkpt><trkpt lat="45.643568422457086" lon="13.898941242207007"><ele>666.7142857142858</ele><time>2026-04-23T16:11:07.999Z</time></trkpt><trkpt lat="45.64359789224149" lon="13.898850160546715"><ele>666.2857142857142</ele><time>2026-04-23T16:11:12.999Z</time></trkpt><trkpt lat="45.64363154991737" lon="13.89875830776125"><ele>665.8571428571429</ele><time>2026-04-23T16:11:19Z</time></trkpt><trkpt lat="45.64365410920268" lon="13.89867000086919"><ele>665.4285714285714</ele><time>2026-04-23T16:11:24Z</time></trkpt><trkpt lat="45.643700727218906" lon="13.89858871251735"><ele>665.0</ele><time>2026-04-23T16:11:30Z</time></trkpt><trkpt lat="45.64374267736168" lon="13.89849849638112"><ele>665.0</ele><time>2026-04-23T16:11:36Z</time></trkpt><trkpt lat="45.64379950081689" lon="13.89843518569269"><ele>665.0</ele><time>2026-04-23T16:11:44Z</time></trkpt><trkpt lat="45.6438499521796" lon="13.898369691799784"><ele>665.0</ele><time>2026-04-23T16:11:52Z</time></trkpt><trkpt lat="45.64391604178928" lon="13.898362991084232"><ele>665.0</ele><time>2026-04-23T16:11:58Z</time></trkpt><trkpt lat="45.64398599588012" lon="13.898362339559998"><ele>665.0</ele><time>2026-04-23T16:12:03Z</time></trkpt><trkpt lat="45.64405420930263" lon="13.89832665080405"><ele>665.0</ele><time>2026-04-23T16:12:08.999Z</time></trkpt><trkpt lat="45.644115687556905" lon="13.898283558755697"><ele>665.0</ele><time>2026-04-23T16:12:13.999Z</time></trkpt><trkpt lat="45.64417976047513" lon="13.89824339154329"><ele>664.8571428571429</ele><time>2026-04-23T16:12:19.999Z</time></trkpt><trkpt lat="45.64424365906535" lon="13.89821691943593"><ele>664.7142857142858</ele><time>2026-04-23T16:12:26.999Z</time></trkpt><trkpt lat="45.64430557594503" lon="13.898165444070834"><ele>664.5714285714286</ele><time>2026-04-23T16:12:33.999Z</time></trkpt><trkpt lat="45.64436301499356" lon="13.898127997420547"><ele>664.4285714285714</ele><time>2026-04-23T16:12:39.999Z</time></trkpt><trkpt lat="45.6444212868033" lon="13.89807129428001"><ele>664.2857142857143</ele><time>2026-04-23T16:12:45.999Z</time></trkpt><trkpt lat="45.64446281110845" lon="13.89800209937711"><ele>664.1428571428571</ele><time>2026-04-23T16:12:54.999Z</time></trkpt><trkpt lat="45.644507982664784" lon="13.897935441260412"><ele>664.0</ele><time>2026-04-23T16:13:01.999Z</time></trkpt><trkpt lat="45.64456667439366" lon="13.897887425784864"><ele>662.2857142857142</ele><time>2026-04-23T16:13:06.999Z</time></trkpt><trkpt lat="45.64462298258063" lon="13.897824971641237"><ele>660.5714285714287</ele><time>2026-04-23T16:13:11.999Z</time></trkpt><trkpt lat="45.644671785082025" lon="13.897765571178594"><ele>658.8571428571429</ele><time>2026-04-23T16:13:17.999Z</time></trkpt><trkpt lat="45.64472311393879" lon="13.897703948168267"><ele>657.1428571428571</ele><time>2026-04-23T16:13:23Z</time></trkpt><trkpt lat="45.6447699250821" lon="13.897616865165473"><ele>655.4285714285713</ele><time>2026-04-23T16:13:30Z</time></trkpt><trkpt lat="45.64481982917008" lon="13.897540614094517"><ele>653.7142857142858</ele><time>2026-04-23T16:13:36Z</time></trkpt><trkpt lat="45.64487172700567" lon="13.897472083462514"><ele>652.0</ele><time>2026-04-23T16:13:42Z</time></trkpt><trkpt lat="45.64490550240191" lon="13.897389165467684"><ele>652.0</ele><time>2026-04-23T16:13:46Z</time></trkpt><trkpt lat="45.64492663051374" lon="13.897285510853445"><ele>652.0</ele><time>2026-04-23T16:13:51Z</time></trkpt><trkpt lat="45.644923878863594" lon="13.89718450301799"><ele>652.0</ele><time>2026-04-23T16:13:56Z</time></trkpt><trkpt lat="45.64491188593232" lon="13.897084992910429"><ele>652.0</ele><time>2026-04-23T16:14:02Z</time></trkpt><trkpt lat="45.64490696420096" lon="13.896992240922021"><ele>652.0</ele><time>2026-04-23T16:14:07Z</time></trkpt><trkpt lat="45.64490435522106" lon="13.896889910939645"><ele>652.0</ele><time>2026-04-23T16:14:13Z</time></trkpt><trkpt lat="45.64492170800868" lon="13.89679509160653"><ele>652.0</ele><time>2026-04-23T16:14:18Z</time></trkpt><trkpt lat="45.64495546291146" lon="13.89670794787282"><ele>652.5714285714286</ele><time>2026-04-23T16:14:24.999Z</time></trkpt><trkpt lat="45.644971082804325" lon="13.896620074537237"><ele>653.1428571428571</ele><time>2026-04-23T16:14:29.999Z</time></trkpt><trkpt lat="45.64499713975331" lon="13.896536900085355"><ele>653.7142857142857</ele><time>2026-04-23T16:14:38.999Z</time></trkpt><trkpt lat="45.64504205932336" lon="13.896462563652614"><ele>654.2857142857142</ele><time>2026-04-23T16:14:46.999Z</time></trkpt><trkpt lat="45.64510389765132" lon="13.896428248297456"><ele>654.8571428571429</ele><time>2026-04-23T16:14:58.999Z</time></trkpt><trkpt lat="45.645166495383194" lon="13.896447927727719"><ele>655.4285714285713</ele><time>2026-04-23T16:15:05.999Z</time></trkpt><trkpt lat="45.645229425174534" lon="13.896423205249162"><ele>656.0</ele><time>2026-04-23T16:15:11.999Z</time></trkpt><trkpt lat="45.645284743698056" lon="13.896374799749832"><ele>652.1428571428571</ele><time>2026-04-23T16:15:16.999Z</time></trkpt><trkpt lat="45.645355690796706" lon="13.8963347258767"><ele>648.2857142857142</ele><time>2026-04-23T16:15:22.999Z</time></trkpt><trkpt lat="45.64541776557105" lon="13.896285394999154"><ele>644.4285714285713</ele><time>2026-04-23T16:15:29Z</time></trkpt><trkpt lat="45.64548994826104" lon="13.89624931992301"><ele>640.5714285714286</ele><time>2026-04-23T16:15:35Z</time></trkpt><trkpt lat="45.64555943476362" lon="13.896212665350314"><ele>636.7142857142858</ele><time>2026-04-23T16:15:40Z</time></trkpt><trkpt lat="45.64562481004469" lon="13.896176618757114"><ele>632.8571428571428</ele><time>2026-04-23T16:15:47Z</time></trkpt><trkpt lat="45.645693669017774" lon="13.89616110138894"><ele>629.0</ele><time>2026-04-23T16:15:53Z</time></trkpt><trkpt lat="45.64577252572373" lon="13.896158457060327"><ele>629.0</ele><time>2026-04-23T16:15:58Z</time></trkpt><trkpt lat="45.64584046555901" lon="13.89616050642526"><ele>629.0</ele><time>2026-04-23T16:16:03Z</time></trkpt><trkpt lat="45.645905159792605" lon="13.896152257212647"><ele>629.0</ele><time>2026-04-23T16:16:09Z</time></trkpt><trkpt lat="45.64597273497833" lon="13.896133642133467"><ele>629.0</ele><time>2026-04-23T16:16:17Z</time></trkpt><trkpt lat="45.64603681820132" lon="13.896130289846038"><ele>629.0</ele><time>2026-04-23T16:16:22Z</time></trkpt><trkpt lat="45.6461065386083" lon="13.896114792630883"><ele>629.0</ele><time>2026-04-23T16:16:27Z</time></trkpt><trkpt lat="45.64617346262149" lon="13.896103664301783"><ele>629.0</ele><time>2026-04-23T16:16:31.999Z</time></trkpt><trkpt lat="45.64623489911366" lon="13.896072167879282"><ele>628.1428571428571</ele><time>2026-04-23T16:16:36.999Z</time></trkpt><trkpt lat="45.64629991195736" lon="13.896008747736845"><ele>627.2857142857143</ele><time>2026-04-23T16:16:40.999Z</time></trkpt><trkpt lat="45.64634810831473" lon="13.8959494318222"><ele>626.4285714285714</ele><time>2026-04-23T16:16:46.999Z</time></trkpt><trkpt lat="45.646383968194826" lon="13.895864785518686"><ele>625.5714285714286</ele><time>2026-04-23T16:16:51.999Z</time></trkpt><trkpt lat="45.646409946664406" lon="13.895777939424534"><ele>624.7142857142858</ele><time>2026-04-23T16:16:56.999Z</time></trkpt><trkpt lat="45.646464579568416" lon="13.895726224629412"><ele>623.8571428571429</ele><time>2026-04-23T16:17:01.999Z</time></trkpt><trkpt lat="45.646527659338034" lon="13.895702496501109"><ele>623.0</ele><time>2026-04-23T16:17:06.999Z</time></trkpt><trkpt lat="45.64660126075158" lon="13.895668851935827"><ele>623.0</ele><time>2026-04-23T16:17:11.999Z</time></trkpt><trkpt lat="45.64666278199163" lon="13.895629797430974"><ele>623.0</ele><time>2026-04-23T16:17:16.999Z</time></trkpt><trkpt lat="45.64673094020394" lon="13.89556847529071"><ele>623.0</ele><time>2026-04-23T16:17:21.999Z</time></trkpt><trkpt lat="45.6467796413328" lon="13.895495946229728"><ele>623.0</ele><time>2026-04-23T16:17:27.999Z</time></trkpt><trkpt lat="45.646837996057414" lon="13.895437984552416"><ele>623.0</ele><time>2026-04-23T16:17:33Z</time></trkpt><trkpt lat="45.64688699984667" lon="13.895369215528097"><ele>623.0</ele><time>2026-04-23T16:17:38Z</time></trkpt><trkpt lat="45.646937328461014" lon="13.895312702437888"><ele>623.0</ele><time>2026-04-23T16:17:43Z</time></trkpt><trkpt lat="45.646978773749574" lon="13.895223056517446"><ele>621.4285714285714</ele><time>2026-04-23T16:17:49Z</time></trkpt><trkpt lat="45.647029200214526" lon="13.895164141867829"><ele>619.8571428571429</ele><time>2026-04-23T16:17:54Z</time></trkpt><trkpt lat="45.64707189450018" lon="13.895086667837798"><ele>618.2857142857142</ele><time>2026-04-23T16:17:59Z</time></trkpt><trkpt lat="45.64709229619558" lon="13.894989571990756"><ele>616.7142857142858</ele><time>2026-04-23T16:18:05Z</time></trkpt><trkpt lat="45.64710599951788" lon="13.894894105735348"><ele>615.1428571428571</ele><time>2026-04-23T16:18:11Z</time></trkpt><trkpt lat="45.64714052432293" lon="13.894805908331705"><ele>613.5714285714286</ele><time>2026-04-23T16:18:16Z</time></trkpt><trkpt lat="45.647164422143206" lon="13.894705118207728"><ele>612.0</ele><time>2026-04-23T16:18:22Z</time></trkpt><trkpt lat="45.647171862341395" lon="13.89460431397439"><ele>612.0</ele><time>2026-04-23T16:18:27Z</time></trkpt><trkpt lat="45.64717604466909" lon="13.894511900462978"><ele>612.0</ele><time>2026-04-23T16:18:32Z</time></trkpt><trkpt lat="45.647183045738444" lon="13.89441077396623"><ele>612.0</ele><time>2026-04-23T16:18:36.999Z</time></trkpt><trkpt lat="45.64719345756343" lon="13.894314421886582"><ele>612.0</ele><time>2026-04-23T16:18:42.999Z</time></trkpt><trkpt lat="45.647218518039146" lon="13.894227405161603"><ele>612.0</ele><time>2026-04-23T16:18:48.999Z</time></trkpt><trkpt lat="45.64726586559788" lon="13.8941619623043"><ele>612.0</ele><time>2026-04-23T16:18:58.999Z</time></trkpt><trkpt lat="45.64732302987357" lon="13.894218668949131"><ele>612.0</ele><time>2026-04-23T16:19:07.999Z</time></trkpt><trkpt lat="45.647383345918456" lon="13.894270455649675"><ele>612.0</ele><time>2026-04-23T16:19:23.999Z</time></trkpt><trkpt lat="45.647430160426154" lon="13.894345761151083"><ele>612.0</ele><time>2026-04-23T16:19:29.999Z</time></trkpt><trkpt lat="45.647467190708774" lon="13.894426991281744"><ele>612.0</ele><time>2026-04-23T16:19:35.999Z</time></trkpt><trkpt lat="45.647505025886225" lon="13.89451209184618"><ele>612.0</ele><time>2026-04-23T16:19:40Z</time></trkpt><trkpt lat="45.64755102311723" lon="13.894600944659217"><ele>612.0</ele><time>2026-04-23T16:19:45Z</time></trkpt><trkpt lat="45.647583608755625" lon="13.89469009798442"><ele>612.0</ele><time>2026-04-23T16:19:50Z</time></trkpt><trkpt lat="45.64762893118573" lon="13.894756538140554"><ele>612.0</ele><time>2026-04-23T16:19:55Z</time></trkpt><trkpt lat="45.647660552641774" lon="13.894840665148266"><ele>612.0</ele><time>2026-04-23T16:20:00Z</time></trkpt><trkpt lat="45.64770166804292" lon="13.89491612316583"><ele>612.0</ele><time>2026-04-23T16:20:05Z</time></trkpt><trkpt lat="45.64771034005168" lon="13.895015290502073"><ele>612.0</ele><time>2026-04-23T16:20:10Z</time></trkpt><trkpt lat="45.64774189125246" lon="13.895105589863432"><ele>612.0</ele><time>2026-04-23T16:20:16Z</time></trkpt><trkpt lat="45.6477628187829" lon="13.895203978451413"><ele>612.0</ele><time>2026-04-23T16:20:22Z</time></trkpt><trkpt lat="45.64777950862514" lon="13.895293418381375"><ele>612.0</ele><time>2026-04-23T16:20:27Z</time></trkpt><trkpt lat="45.647784847321255" lon="13.895396766244382"><ele>612.0</ele><time>2026-04-23T16:20:33Z</time></trkpt><trkpt lat="45.647817883378096" lon="13.895480337451119"><ele>608.4285714285714</ele><time>2026-04-23T16:20:38Z</time></trkpt><trkpt lat="45.647894845450466" lon="13.895479869365397"><ele>604.8571428571429</ele><time>2026-04-23T16:20:43Z</time></trkpt><trkpt lat="45.647953257261335" lon="13.895414906370352"><ele>601.2857142857143</ele><time>2026-04-23T16:20:47Z</time></trkpt><trkpt lat="45.647979602693376" lon="13.895319774969657"><ele>597.7142857142858</ele><time>2026-04-23T16:20:52Z</time></trkpt><trkpt lat="45.64797989240848" lon="13.89521743905092"><ele>594.1428571428572</ele><time>2026-04-23T16:20:57Z</time></trkpt><trkpt lat="45.64798625321284" lon="13.895119396984699"><ele>590.5714285714286</ele><time>2026-04-23T16:21:01.999Z</time></trkpt><trkpt lat="45.64797540308973" lon="13.895019441633401"><ele>587.0</ele><time>2026-04-23T16:21:06.999Z</time></trkpt><trkpt lat="45.64795511659155" lon="13.894928527354335"><ele>587.0</ele><time>2026-04-23T16:21:11.999Z</time></trkpt><trkpt lat="45.64796173188126" lon="13.894820900024044"><ele>587.0</ele><time>2026-04-23T16:21:17.999Z</time></trkpt><trkpt lat="45.647960301331" lon="13.894720177118804"><ele>587.0</ele><time>2026-04-23T16:21:22.999Z</time></trkpt><trkpt lat="45.6479427617856" lon="13.89461835719435"><ele>587.0</ele><time>2026-04-23T16:21:27.999Z</time></trkpt><trkpt lat="45.64793485820178" lon="13.89451326956257"><ele>587.0</ele><time>2026-04-23T16:21:32.999Z</time></trkpt><trkpt lat="45.64792885506813" lon="13.894419070100048"><ele>587.0</ele><time>2026-04-23T16:21:37.999Z</time></trkpt><trkpt lat="45.64791303313823" lon="13.894312356185457"><ele>587.0</ele><time>2026-04-23T16:21:42.999Z</time></trkpt><trkpt lat="45.64792047616756" lon="13.89422150763723"><ele>586.1428571428571</ele><time>2026-04-23T16:21:51Z</time></trkpt><trkpt lat="45.64791611642163" lon="13.894126960886814"><ele>585.2857142857143</ele><time>2026-04-23T16:21:56Z</time></trkpt><trkpt lat="45.64787597036529" lon="13.89402445035849"><ele>584.4285714285714</ele><time>2026-04-23T16:22:01Z</time></trkpt><trkpt lat="45.647871276612406" lon="13.89392482818882"><ele>583.5714285714286</ele><time>2026-04-23T16:22:06Z</time></trkpt><trkpt lat="45.647837158790686" lon="13.89384384082079"><ele>582.7142857142858</ele><time>2026-04-23T16:22:11Z</time></trkpt><trkpt lat="45.647797739785375" lon="13.893759133718733"><ele>581.8571428571429</ele><time>2026-04-23T16:22:15Z</time></trkpt><trkpt lat="45.6477639448953" lon="13.893678125258182"><ele>581.0</ele><time>2026-04-23T16:22:19Z</time></trkpt><trkpt lat="45.647723023013185" lon="13.89358155738039"><ele>581.0</ele><time>2026-04-23T16:22:24Z</time></trkpt><trkpt lat="45.64768413910732" lon="13.893499258586939"><ele>581.0</ele><time>2026-04-23T16:22:29Z</time></trkpt><trkpt lat="45.64770338228919" lon="13.893409296022128"><ele>581.0</ele><time>2026-04-23T16:22:34Z</time></trkpt><trkpt lat="45.647762092897956" lon="13.89344618941978"><ele>581.0</ele><time>2026-04-23T16:22:43Z</time></trkpt><trkpt lat="45.64779357034328" lon="13.893524451466156"><ele>581.0</ele><time>2026-04-23T16:22:48Z</time></trkpt><trkpt lat="45.64784060310076" lon="13.893585243605685"><ele>581.0</ele><time>2026-04-23T16:22:52Z</time></trkpt><trkpt lat="45.64789639848402" lon="13.89365634271335"><ele>581.0</ele><time>2026-04-23T16:22:57Z</time></trkpt><trkpt lat="45.6479514085123" lon="13.893726331783997"><ele>581.0</ele><time>2026-04-23T16:23:02Z</time></trkpt><trkpt lat="45.64801074519546" lon="13.893791087503596"><ele>581.0</ele><time>2026-04-23T16:23:08Z</time></trkpt><trkpt lat="45.64806167531312" lon="13.893848023398169"><ele>581.0</ele><time>2026-04-23T16:23:12.999Z</time></trkpt><trkpt lat="45.64812448333864" lon="13.893889492658829"><ele>581.0</ele><time>2026-04-23T16:23:17.999Z</time></trkpt><trkpt lat="45.64817367493899" lon="13.893951379100653"><ele>581.0</ele><time>2026-04-23T16:23:22.999Z</time></trkpt><trkpt lat="45.64822345700284" lon="13.894020876721601"><ele>581.0</ele><time>2026-04-23T16:23:27.999Z</time></trkpt><trkpt lat="45.648272628078615" lon="13.894086424967773"><ele>581.0</ele><time>2026-04-23T16:23:32.999Z</time></trkpt><trkpt lat="45.64831981334712" lon="13.894172925849512"><ele>581.0</ele><time>2026-04-23T16:23:38.999Z</time></trkpt><trkpt lat="45.64837205885888" lon="13.894231526696855"><ele>581.0</ele><time>2026-04-23T16:23:43.999Z</time></trkpt><trkpt lat="45.648408957434896" lon="13.894310962726122"><ele>581.0</ele><time>2026-04-23T16:23:48.999Z</time></trkpt><trkpt lat="45.64845471272855" lon="13.8943861831268"><ele>581.0</ele><time>2026-04-23T16:23:55Z</time></trkpt><trkpt lat="45.64849048210584" lon="13.894466866336382"><ele>581.0</ele><time>2026-04-23T16:24:00Z</time></trkpt><trkpt lat="45.648531251069834" lon="13.894542736984935"><ele>581.0</ele><time>2026-04-23T16:24:05Z</time></trkpt><trkpt lat="45.64856921599086" lon="13.894624470575812"><ele>581.0</ele><time>2026-04-23T16:24:10Z</time></trkpt><trkpt lat="45.6486041037812" lon="13.894711448381258"><ele>578.7142857142857</ele><time>2026-04-23T16:24:15Z</time></trkpt><trkpt lat="45.64863322468422" lon="13.894796619624428"><ele>576.4285714285714</ele><time>2026-04-23T16:24:20Z</time></trkpt><trkpt lat="45.6486536992544" lon="13.894889048227347"><ele>574.1428571428571</ele><time>2026-04-23T16:24:25Z</time></trkpt><trkpt lat="45.64865605806237" lon="13.894988084918511"><ele>571.8571428571429</ele><time>2026-04-23T16:24:30Z</time></trkpt><trkpt lat="45.648687202465474" lon="13.895071772023778"><ele>569.5714285714286</ele><time>2026-04-23T16:24:37Z</time></trkpt><trkpt lat="45.64869212998088" lon="13.89517566040212"><ele>567.2857142857142</ele><time>2026-04-23T16:24:41Z</time></trkpt><trkpt lat="45.64870160528654" lon="13.895274502962458"><ele>565.0</ele><time>2026-04-23T16:24:46Z</time></trkpt><trkpt lat="45.648768892217774" lon="13.895293369052393"><ele>564.9999999999999</ele><time>2026-04-23T16:24:51Z</time></trkpt><trkpt lat="45.64881850571023" lon="13.895217268921487"><ele>565.0</ele><time>2026-04-23T16:24:56Z</time></trkpt><trkpt lat="45.64886889195192" lon="13.89514166622065"><ele>565.0</ele><time>2026-04-23T16:25:01Z</time></trkpt><trkpt lat="45.64891337943517" lon="13.895056159913622"><ele>565.0</ele><time>2026-04-23T16:25:06Z</time></trkpt><trkpt lat="45.64891521074976" lon="13.894956343273563"><ele>565.0</ele><time>2026-04-23T16:25:11Z</time></trkpt><trkpt lat="45.64894449173793" lon="13.894868614599199"><ele>564.9999999999999</ele><time>2026-04-23T16:25:16Z</time></trkpt><trkpt lat="45.648949496392916" lon="13.894766815339405"><ele>565.0</ele><time>2026-04-23T16:25:21Z</time></trkpt><trkpt lat="45.64893041071457" lon="13.89466950458822"><ele>564.9999999999999</ele><time>2026-04-23T16:25:26Z</time></trkpt><trkpt lat="45.648925751456545" lon="13.894569574098906"><ele>565.0</ele><time>2026-04-23T16:25:30.999Z</time></trkpt><trkpt lat="45.648923530477" lon="13.894473778647003"><ele>565.0</ele><time>2026-04-23T16:25:35.999Z</time></trkpt><trkpt lat="45.64889874047373" lon="13.894390593832622"><ele>565.0</ele><time>2026-04-23T16:26:03Z</time></trkpt><trkpt lat="45.648903132975846" lon="13.894290276153967"><ele>565.0</ele><time>2026-04-23T16:26:10Z</time></trkpt><trkpt lat="45.648906750971385" lon="13.894182714909235"><ele>564.9999999999999</ele><time>2026-04-23T16:26:17Z</time></trkpt><trkpt lat="45.64892515843263" lon="13.894080510436416"><ele>565.0</ele><time>2026-04-23T16:26:23Z</time></trkpt><trkpt lat="45.64892901323123" lon="13.893977427113636"><ele>564.2857142857142</ele><time>2026-04-23T16:26:29Z</time></trkpt><trkpt lat="45.64891169262018" lon="13.893877274464668"><ele>563.5714285714286</ele><time>2026-04-23T16:26:34Z</time></trkpt><trkpt lat="45.648862353060096" lon="13.893815062388098"><ele>562.8571428571429</ele><time>2026-04-23T16:26:39Z</time></trkpt><trkpt lat="45.64885156558668" lon="13.893723080759054"><ele>562.1428571428571</ele><time>2026-04-23T16:26:44Z</time></trkpt><trkpt lat="45.64884012700456" lon="13.893627658660352"><ele>561.4285714285714</ele><time>2026-04-23T16:26:49Z</time></trkpt><trkpt lat="45.648821329459196" lon="13.893538452908441"><ele>560.7142857142857</ele><time>2026-04-23T16:26:55Z</time></trkpt><trkpt lat="45.64888517697573" lon="13.893535301310614"><ele>560.0</ele><time>2026-04-23T16:27:05Z</time></trkpt><trkpt lat="45.648925895926126" lon="13.89361909645069"><ele>560.0</ele><time>2026-04-23T16:27:10Z</time></trkpt><trkpt lat="45.64895814039082" lon="13.893707147710897"><ele>560.0</ele><time>2026-04-23T16:27:14Z</time></trkpt><trkpt lat="45.64899442840287" lon="13.89379846445083"><ele>560.0</ele><time>2026-04-23T16:27:19Z</time></trkpt><trkpt lat="45.6490206020629" lon="13.893881949867579"><ele>560.0</ele><time>2026-04-23T16:27:23Z</time></trkpt><trkpt lat="45.64904918171236" lon="13.89396717130081"><ele>560.0</ele><time>2026-04-23T16:27:28Z</time></trkpt><trkpt lat="45.64908160040469" lon="13.89404542449041"><ele>560.0</ele><time>2026-04-23T16:27:32Z</time></trkpt><trkpt lat="45.64912204097539" lon="13.89413015188153"><ele>560.0</ele><time>2026-04-23T16:27:37Z</time></trkpt><trkpt lat="45.649149704788854" lon="13.894219470582906"><ele>560.7142857142857</ele><time>2026-04-23T16:27:42Z</time></trkpt><trkpt lat="45.64919988547436" lon="13.894284490385933"><ele>561.4285714285714</ele><time>2026-04-23T16:27:46.999Z</time></trkpt><trkpt lat="45.6492280395846" lon="13.894372014393046"><ele>562.1428571428571</ele><time>2026-04-23T16:27:51.999Z</time></trkpt><trkpt lat="45.649254582977115" lon="13.894464433968547"><ele>562.8571428571429</ele><time>2026-04-23T16:27:56.999Z</time></trkpt><trkpt lat="45.64927931201297" lon="13.894547705059626"><ele>563.5714285714286</ele><time>2026-04-23T16:28:02Z</time></trkpt><trkpt lat="45.649320170480934" lon="13.894620862457868"><ele>564.2857142857142</ele><time>2026-04-23T16:28:07Z</time></trkpt><trkpt lat="45.64936284027301" lon="13.894702228035941"><ele>565.0</ele><time>2026-04-23T16:28:12Z</time></trkpt><trkpt lat="45.649389780714095" lon="13.894791789266879"><ele>564.9999999999999</ele><time>2026-04-23T16:28:17Z</time></trkpt><trkpt lat="45.649422145136256" lon="13.894879770333151"><ele>565.0</ele><time>2026-04-23T16:28:22Z</time></trkpt><trkpt lat="45.649452261159105" lon="13.894971054686144"><ele>565.0</ele><time>2026-04-23T16:28:27Z</time></trkpt><trkpt lat="45.64947496640149" lon="13.895056304136604"><ele>565.0</ele><time>2026-04-23T16:28:33Z</time></trkpt><trkpt lat="45.64952361437921" lon="13.895118445163147"><ele>565.0</ele><time>2026-04-23T16:28:39Z</time></trkpt><trkpt lat="45.64954621070888" lon="13.895213392119278"><ele>564.9999999999999</ele><time>2026-04-23T16:28:45Z</time></trkpt><trkpt lat="45.649566601887216" lon="13.895319023863774"><ele>565.0</ele><time>2026-04-23T16:28:50Z</time></trkpt><trkpt lat="45.64963119870062" lon="13.895346838323077"><ele>561.8571428571428</ele><time>2026-04-23T16:28:56Z</time></trkpt><trkpt lat="45.649685477974685" lon="13.89527104539711"><ele>558.7142857142857</ele><time>2026-04-23T16:29:01Z</time></trkpt><trkpt lat="45.649710006457234" lon="13.895183302387528"><ele>555.5714285714286</ele><time>2026-04-23T16:29:05Z</time></trkpt><trkpt lat="45.649748030215896" lon="13.895088429340992"><ele>552.4285714285713</ele><time>2026-04-23T16:29:10Z</time></trkpt><trkpt lat="45.64973844400366" lon="13.894989036701274"><ele>549.2857142857142</ele><time>2026-04-23T16:29:15Z</time></trkpt><trkpt lat="45.64974370693387" lon="13.894897070905646"><ele>546.1428571428571</ele><time>2026-04-23T16:29:21Z</time></trkpt><trkpt lat="45.64976861475179" lon="13.894798138739052"><ele>543.0</ele><time>2026-04-23T16:29:26Z</time></trkpt><trkpt lat="45.64977829025666" lon="13.894706658472998"><ele>543.0</ele><time>2026-04-23T16:29:31Z</time></trkpt><trkpt lat="45.64977309843672" lon="13.894608513961531"><ele>543.0</ele><time>2026-04-23T16:29:36Z</time></trkpt><trkpt lat="45.649775887337256" lon="13.8945020211342"><ele>543.0</ele><time>2026-04-23T16:29:42Z</time></trkpt><trkpt lat="45.649781933069555" lon="13.894409085624536"><ele>543.0</ele><time>2026-04-23T16:29:46Z</time></trkpt><trkpt lat="45.64978599348562" lon="13.89430240944765"><ele>543.0</ele><time>2026-04-23T16:29:51Z</time></trkpt><trkpt lat="45.64977076971205" lon="13.894207058286115"><ele>543.0</ele><time>2026-04-23T16:29:57Z</time></trkpt><trkpt lat="45.64978392419717" lon="13.894113654386993"><ele>543.0</ele><time>2026-04-23T16:30:03Z</time></trkpt><trkpt lat="45.64978624883972" lon="13.894017654307808"><ele>542.8571428571429</ele><time>2026-04-23T16:30:08Z</time></trkpt><trkpt lat="45.64979140787737" lon="13.89391995029132"><ele>542.7142857142857</ele><time>2026-04-23T16:30:13Z</time></trkpt><trkpt lat="45.64977560337844" lon="13.893816108713194"><ele>542.5714285714286</ele><time>2026-04-23T16:30:18Z</time></trkpt><trkpt lat="45.64975703872687" lon="13.89372441921597"><ele>542.4285714285714</ele><time>2026-04-23T16:30:23Z</time></trkpt><trkpt lat="45.649765664204594" lon="13.893624685454023"><ele>542.2857142857143</ele><time>2026-04-23T16:30:30Z</time></trkpt><trkpt lat="45.64975325491118" lon="13.893533543597451"><ele>542.1428571428571</ele><time>2026-04-23T16:30:35Z</time></trkpt><trkpt lat="45.649750207377835" lon="13.893427982186042"><ele>542.0</ele><time>2026-04-23T16:30:41Z</time></trkpt><trkpt lat="45.64974016388038" lon="13.893320354259401"><ele>540.2857142857142</ele><time>2026-04-23T16:30:46Z</time></trkpt><trkpt lat="45.64972977203229" lon="13.893213520144883"><ele>538.5714285714286</ele><time>2026-04-23T16:30:52Z</time></trkpt><trkpt lat="45.649738144282345" lon="13.893115491582702"><ele>536.8571428571429</ele><time>2026-04-23T16:30:58Z</time></trkpt><trkpt lat="45.64972642965544" lon="13.893010354232485"><ele>535.1428571428571</ele><time>2026-04-23T16:31:04Z</time></trkpt><trkpt lat="45.64970709941607" lon="13.892917452517555"><ele>533.4285714285714</ele><time>2026-04-23T16:31:09Z</time></trkpt><trkpt lat="45.64970228968818" lon="13.892813543617784"><ele>531.7142857142857</ele><time>2026-04-23T16:31:15Z</time></trkpt><trkpt lat="45.64968746109894" lon="13.892707518500407"><ele>530.0</ele><time>2026-04-23T16:31:20Z</time></trkpt><trkpt lat="45.6497051096238" lon="13.892593070546454"><ele>528.9999999999999</ele><time>2026-04-23T16:31:27Z</time></trkpt><trkpt lat="45.64969047750859" lon="13.892502664648013"><ele>528.0</ele><time>2026-04-23T16:31:32Z</time></trkpt><trkpt lat="45.649686796233006" lon="13.892403303117476"><ele>527.0</ele><time>2026-04-23T16:31:37Z</time></trkpt><trkpt lat="45.64967458788035" lon="13.892295846486157"><ele>526.0</ele><time>2026-04-23T16:31:42Z</time></trkpt><trkpt lat="45.649682842217686" lon="13.89219396198497"><ele>525.0</ele><time>2026-04-23T16:31:47Z</time></trkpt><trkpt lat="45.64969684289053" lon="13.892095236218662"><ele>523.9999999999999</ele><time>2026-04-23T16:31:52Z</time></trkpt><trkpt lat="45.64969600577762" lon="13.892002773216602"><ele>523.0</ele><time>2026-04-23T16:31:57Z</time></trkpt><trkpt lat="45.64968247865868" lon="13.891899071078686"><ele>522.9999999999999</ele><time>2026-04-23T16:32:02Z</time></trkpt><trkpt lat="45.649682948667724" lon="13.891792521964605"><ele>523.0</ele><time>2026-04-23T16:32:07Z</time></trkpt><trkpt lat="45.649687164739355" lon="13.891696391923318"><ele>523.0</ele><time>2026-04-23T16:32:12Z</time></trkpt><trkpt lat="45.649682381646336" lon="13.891599264964459"><ele>523.0</ele><time>2026-04-23T16:32:18Z</time></trkpt><trkpt lat="45.64967875684082" lon="13.891504478659806"><ele>523.0</ele><time>2026-04-23T16:32:24Z</time></trkpt><trkpt lat="45.64967997021811" lon="13.891411837195012"><ele>522.9999999999999</ele><time>2026-04-23T16:32:29Z</time></trkpt><trkpt lat="45.64967011947281" lon="13.891319501742538"><ele>523.0</ele><time>2026-04-23T16:32:34Z</time></trkpt><trkpt lat="45.649660836467675" lon="13.891226419716869"><ele>522.1428571428571</ele><time>2026-04-23T16:32:39Z</time></trkpt><trkpt lat="45.64965397043565" lon="13.891130106110941"><ele>521.2857142857142</ele><time>2026-04-23T16:32:44Z</time></trkpt><trkpt lat="45.649637765848404" lon="13.891035044980589"><ele>520.4285714285714</ele><time>2026-04-23T16:32:49Z</time></trkpt><trkpt lat="45.649630792310894" lon="13.89093931680891"><ele>519.5714285714286</ele><time>2026-04-23T16:32:54Z</time></trkpt><trkpt lat="45.64961115732782" lon="13.89084045704235"><ele>518.7142857142858</ele><time>2026-04-23T16:33:00Z</time></trkpt><trkpt lat="45.649595125917386" lon="13.890750151338526"><ele>517.8571428571429</ele><time>2026-04-23T16:33:05Z</time></trkpt><trkpt lat="45.64961186211048" lon="13.890651509802735"><ele>517.0</ele><time>2026-04-23T16:33:13Z</time></trkpt><trkpt lat="45.64961273307884" lon="13.890558883452567"><ele>515.7142857142858</ele><time>2026-04-23T16:33:19Z</time></trkpt><trkpt lat="45.64958470516899" lon="13.890470819068483"><ele>514.4285714285714</ele><time>2026-04-23T16:33:24Z</time></trkpt><trkpt lat="45.64955733581448" lon="13.890382136793853"><ele>513.1428571428571</ele><time>2026-04-23T16:33:29Z</time></trkpt><trkpt lat="45.64955123033727" lon="13.89028394745331"><ele>511.8571428571429</ele><time>2026-04-23T16:33:34Z</time></trkpt><trkpt lat="45.6495306900577" lon="13.890193021582103"><ele>510.57142857142856</ele><time>2026-04-23T16:33:39Z</time></trkpt><trkpt lat="45.649513539487046" lon="13.890096191255763"><ele>509.28571428571433</ele><time>2026-04-23T16:33:44Z</time></trkpt><trkpt lat="45.649490934736136" lon="13.890008509793967"><ele>508.0</ele><time>2026-04-23T16:33:49Z</time></trkpt><trkpt lat="45.64946431144945" lon="13.889922477407083"><ele>508.42857142857144</ele><time>2026-04-23T16:33:55Z</time></trkpt><trkpt lat="45.64944547654462" lon="13.889826782543881"><ele>508.85714285714283</ele><time>2026-04-23T16:34:01Z</time></trkpt><trkpt lat="45.64942193392238" lon="13.889737048807925"><ele>509.2857142857143</ele><time>2026-04-23T16:34:07Z</time></trkpt><trkpt lat="45.64940201937447" lon="13.889641123686616"><ele>509.7142857142857</ele><time>2026-04-23T16:34:12Z</time></trkpt><trkpt lat="45.64938154049233" lon="13.889538825391616"><ele>510.1428571428571</ele><time>2026-04-23T16:34:17.999Z</time></trkpt><trkpt lat="45.649344505518876" lon="13.889448982491718"><ele>510.57142857142856</ele><time>2026-04-23T16:34:22.999Z</time></trkpt><trkpt lat="45.64930422749946" lon="13.88937855620718"><ele>511.0</ele><time>2026-04-23T16:34:27.999Z</time></trkpt><trkpt lat="45.64925707013924" lon="13.889309101849877"><ele>511.0</ele><time>2026-04-23T16:34:32.999Z</time></trkpt><trkpt lat="45.64919288456841" lon="13.889264583251746"><ele>511.0</ele><time>2026-04-23T16:34:38.999Z</time></trkpt><trkpt lat="45.649127731605745" lon="13.8892460582862"><ele>511.0</ele><time>2026-04-23T16:34:43.999Z</time></trkpt><trkpt lat="45.649075161429245" lon="13.889185344505835"><ele>511.0</ele><time>2026-04-23T16:34:50.999Z</time></trkpt><trkpt lat="45.64905175038922" lon="13.8890912054512"><ele>511.0</ele><time>2026-04-23T16:34:57.999Z</time></trkpt><trkpt lat="45.649076814706476" lon="13.88899728333382"><ele>511.0</ele><time>2026-04-23T16:35:04.999Z</time></trkpt><trkpt lat="45.64908842736704" lon="13.888905598018301"><ele>511.0</ele><time>2026-04-23T16:35:09.999Z</time></trkpt><trkpt lat="45.64910990994033" lon="13.888803205079736"><ele>508.57142857142856</ele><time>2026-04-23T16:35:15.999Z</time></trkpt><trkpt lat="45.6490835328606" lon="13.888716932686727"><ele>506.1428571428571</ele><time>2026-04-23T16:35:19.999Z</time></trkpt><trkpt lat="45.64904303239974" lon="13.888634357736874"><ele>503.7142857142857</ele><time>2026-04-23T16:35:24.999Z</time></trkpt><trkpt lat="45.648997343265904" lon="13.88855426177183"><ele>501.2857142857143</ele><time>2026-04-23T16:35:29.999Z</time></trkpt><trkpt lat="45.648959312841015" lon="13.888467543246007"><ele>498.85714285714283</ele><time>2026-04-23T16:35:34.999Z</time></trkpt><trkpt lat="45.6489268275327" lon="13.88838386519895"><ele>496.42857142857144</ele><time>2026-04-23T16:35:39.999Z</time></trkpt><trkpt lat="45.64888582047513" lon="13.888302423897606"><ele>494.0</ele><time>2026-04-23T16:35:44.999Z</time></trkpt><trkpt lat="45.64885221201481" lon="13.888211895386993"><ele>492.7142857142857</ele><time>2026-04-23T16:35:49.999Z</time></trkpt><trkpt lat="45.648820282672865" lon="13.888117451832784"><ele>491.42857142857144</ele><time>2026-04-23T16:35:54.999Z</time></trkpt><trkpt lat="45.64878001912832" lon="13.888031665051432"><ele>490.14285714285717</ele><time>2026-04-23T16:35:59.999Z</time></trkpt><trkpt lat="45.64876052719249" lon="13.887935600061436"><ele>488.8571428571429</ele><time>2026-04-23T16:36:04.999Z</time></trkpt><trkpt lat="45.64871994560084" lon="13.88785349193122"><ele>487.57142857142856</ele><time>2026-04-23T16:36:09.999Z</time></trkpt><trkpt lat="45.64868305220821" lon="13.887770549637766"><ele>486.28571428571433</ele><time>2026-04-23T16:36:14.999Z</time></trkpt><trkpt lat="45.6486309074664" lon="13.887709315542436"><ele>485.00000000000006</ele><time>2026-04-23T16:36:19.999Z</time></trkpt><trkpt lat="45.64857958376465" lon="13.887642475387548"><ele>482.7142857142858</ele><time>2026-04-23T16:36:24.999Z</time></trkpt><trkpt lat="45.64853624459179" lon="13.887566462018524"><ele>480.42857142857144</ele><time>2026-04-23T16:36:29.999Z</time></trkpt><trkpt lat="45.64848500949746" lon="13.88750256463802"><ele>478.14285714285717</ele><time>2026-04-23T16:36:35Z</time></trkpt><trkpt lat="45.64843554163623" lon="13.887426488820473"><ele>475.8571428571429</ele><time>2026-04-23T16:36:40Z</time></trkpt><trkpt lat="45.64838654109434" lon="13.88736205066809"><ele>473.57142857142856</ele><time>2026-04-23T16:36:44.999Z</time></trkpt><trkpt lat="45.64834093919033" lon="13.887288282719433"><ele>471.2857142857143</ele><time>2026-04-23T16:36:49.999Z</time></trkpt><trkpt lat="45.64832794366254" lon="13.887199181699257"><ele>469.0</ele><time>2026-04-23T16:36:55.999Z</time></trkpt><trkpt lat="45.64834277595292" lon="13.887108681077834"><ele>469.0</ele><time>2026-04-23T16:37:01.999Z</time></trkpt><trkpt lat="45.648355045401985" lon="13.887008856104208"><ele>469.0</ele><time>2026-04-23T16:37:07.999Z</time></trkpt><trkpt lat="45.64839588603878" lon="13.886937801079865"><ele>469.0</ele><time>2026-04-23T16:37:12.999Z</time></trkpt><trkpt lat="45.6484501895718" lon="13.886873647137831"><ele>469.0</ele><time>2026-04-23T16:37:19.999Z</time></trkpt><trkpt lat="45.64850862907962" lon="13.886812314734586"><ele>469.0</ele><time>2026-04-23T16:37:25.999Z</time></trkpt><trkpt lat="45.648570229949385" lon="13.886754238819979"><ele>469.0</ele><time>2026-04-23T16:37:30.999Z</time></trkpt><trkpt lat="45.648623919953295" lon="13.886686606561165"><ele>469.0</ele><time>2026-04-23T16:37:35.999Z</time></trkpt><trkpt lat="45.648663444456666" lon="13.886604565384944"><ele>466.42857142857144</ele><time>2026-04-23T16:37:41.999Z</time></trkpt><trkpt lat="45.64871780416239" lon="13.886532028761884"><ele>463.8571428571429</ele><time>2026-04-23T16:37:47.999Z</time></trkpt><trkpt lat="45.648752235202" lon="13.886453628305134"><ele>461.2857142857143</ele><time>2026-04-23T16:37:52.999Z</time></trkpt><trkpt lat="45.6487969760088" lon="13.886374329675583"><ele>458.7142857142857</ele><time>2026-04-23T16:37:58.999Z</time></trkpt><trkpt lat="45.6488422377816" lon="13.886291701953912"><ele>456.14285714285717</ele><time>2026-04-23T16:38:04.999Z</time></trkpt><trkpt lat="45.64889188202388" lon="13.886224180689855"><ele>453.57142857142856</ele><time>2026-04-23T16:38:08.999Z</time></trkpt><trkpt lat="45.64893515462195" lon="13.88614706684179"><ele>451.0</ele><time>2026-04-23T16:38:13.999Z</time></trkpt><trkpt lat="45.64897445350009" lon="13.88607055799016"><ele>451.0</ele><time>2026-04-23T16:38:18.999Z</time></trkpt><trkpt lat="45.649012782442476" lon="13.885987774686775"><ele>451.0</ele><time>2026-04-23T16:38:23.999Z</time></trkpt><trkpt lat="45.649057933782395" lon="13.88590649032523"><ele>451.0</ele><time>2026-04-23T16:38:29.999Z</time></trkpt><trkpt lat="45.649101024552685" lon="13.88584063975038"><ele>451.0</ele><time>2026-04-23T16:38:35Z</time></trkpt><trkpt lat="45.64914200398496" lon="13.885757451438703"><ele>451.0</ele><time>2026-04-23T16:38:41Z</time></trkpt><trkpt lat="45.64919197639163" lon="13.885682522153303"><ele>451.0</ele><time>2026-04-23T16:38:47Z</time></trkpt><trkpt lat="45.649252589936" lon="13.885650907417382"><ele>451.0</ele><time>2026-04-23T16:38:52Z</time></trkpt><trkpt lat="45.649314209240565" lon="13.885603695600002"><ele>450.4285714285714</ele><time>2026-04-23T16:38:57Z</time></trkpt><trkpt lat="45.64937186034595" lon="13.885549685291828"><ele>449.8571428571429</ele><time>2026-04-23T16:39:02Z</time></trkpt><trkpt lat="45.649415468135196" lon="13.88546259582446"><ele>449.2857142857143</ele><time>2026-04-23T16:39:08Z</time></trkpt><trkpt lat="45.64945076932661" lon="13.885384995942655"><ele>448.71428571428567</ele><time>2026-04-23T16:39:12.999Z</time></trkpt><trkpt lat="45.6494731432608" lon="13.88529722540043"><ele>448.1428571428571</ele><time>2026-04-23T16:39:17.999Z</time></trkpt><trkpt lat="45.649502714894574" lon="13.885217156939937"><ele>447.57142857142856</ele><time>2026-04-23T16:39:22.999Z</time></trkpt><trkpt lat="45.64952531213427" lon="13.885130196819423"><ele>447.0</ele><time>2026-04-23T16:39:27.999Z</time></trkpt><trkpt lat="45.649566240821926" lon="13.885057014298166"><ele>444.57142857142856</ele><time>2026-04-23T16:39:32.999Z</time></trkpt><trkpt lat="45.64959784734036" lon="13.884975228280979"><ele>442.1428571428571</ele><time>2026-04-23T16:39:37.999Z</time></trkpt><trkpt lat="45.649643510545246" lon="13.884894368025808"><ele>439.71428571428567</ele><time>2026-04-23T16:39:43.999Z</time></trkpt><trkpt lat="45.649694562799" lon="13.884836675730229"><ele>437.2857142857143</ele><time>2026-04-23T16:39:48.999Z</time></trkpt><trkpt lat="45.64973777255206" lon="13.884761174803153"><ele>434.8571428571429</ele><time>2026-04-23T16:39:53.999Z</time></trkpt><trkpt lat="45.64977808657865" lon="13.884684198558515"><ele>432.4285714285714</ele><time>2026-04-23T16:39:58.999Z</time></trkpt><trkpt lat="45.64983340669538" lon="13.884623664517983"><ele>430.0</ele><time>2026-04-23T16:40:03.999Z</time></trkpt><trkpt lat="45.649833982507126" lon="13.884525969314366"><ele>430.0</ele><time>2026-04-23T16:40:13.999Z</time></trkpt><trkpt lat="45.64986402405261" lon="13.884446294896968"><ele>430.0</ele><time>2026-04-23T16:40:19.999Z</time></trkpt><trkpt lat="45.649916347199564" lon="13.884389896585237"><ele>430.0</ele><time>2026-04-23T16:40:24.999Z</time></trkpt><trkpt lat="45.649970483384465" lon="13.884336620049552"><ele>430.0</ele><time>2026-04-23T16:40:29.999Z</time></trkpt><trkpt lat="45.65003729093131" lon="13.884289734118116"><ele>430.0</ele><time>2026-04-23T16:40:36.999Z</time></trkpt><trkpt lat="45.65009617049364" lon="13.884239392672216"><ele>430.0</ele><time>2026-04-23T16:40:43Z</time></trkpt><trkpt lat="45.65016558719699" lon="13.884207731884306"><ele>430.0</ele><time>2026-04-23T16:41:44.999Z</time></trkpt><trkpt lat="45.65022855742524" lon="13.884182337674323"><ele>429.2857142857143</ele><time>2026-04-23T16:41:48.999Z</time></trkpt><trkpt lat="45.650294047193945" lon="13.884138715012964"><ele>428.5714285714286</ele><time>2026-04-23T16:41:54.999Z</time></trkpt><trkpt lat="45.65034826862759" lon="13.884083085438599"><ele>427.8571428571429</ele><time>2026-04-23T16:41:58.999Z</time></trkpt><trkpt lat="45.65040567672539" lon="13.884027703438539"><ele>427.1428571428571</ele><time>2026-04-23T16:42:04.999Z</time></trkpt><trkpt lat="45.65046201908674" lon="13.883984958935848"><ele>426.42857142857144</ele><time>2026-04-23T16:42:10.999Z</time></trkpt><trkpt lat="45.65051045115806" lon="13.88392727650698"><ele>425.7142857142857</ele><time>2026-04-23T16:42:15.999Z</time></trkpt><trkpt lat="45.65056557691881" lon="13.883854809439072"><ele>425.0</ele><time>2026-04-23T16:42:19.999Z</time></trkpt><trkpt lat="45.65059481930245" lon="13.883773619162103"><ele>425.0</ele><time>2026-04-23T16:42:23.999Z</time></trkpt><trkpt lat="45.65063255439982" lon="13.883688548384205"><ele>425.0</ele><time>2026-04-23T16:42:28.999Z</time></trkpt><trkpt lat="45.65065061126196" lon="13.883595788689696"><ele>425.0</ele><time>2026-04-23T16:42:33.999Z</time></trkpt><trkpt lat="45.650699861367954" lon="13.883529915334151"><ele>425.0</ele><time>2026-04-23T16:42:38.999Z</time></trkpt><trkpt lat="45.65076151575725" lon="13.883483273683622"><ele>425.0</ele><time>2026-04-23T16:42:45Z</time></trkpt><trkpt lat="45.650817260261384" lon="13.883438936432112"><ele>425.0</ele><time>2026-04-23T16:42:51Z</time></trkpt><trkpt lat="45.650869842172895" lon="13.883373422298538"><ele>425.0</ele><time>2026-04-23T16:42:56Z</time></trkpt><trkpt lat="45.65092115094207" lon="13.883313731527254"><ele>424.2857142857143</ele><time>2026-04-23T16:43:00Z</time></trkpt><trkpt lat="45.65096457584699" lon="13.883238094000466"><ele>423.57142857142856</ele><time>2026-04-23T16:43:05Z</time></trkpt><trkpt lat="45.65099686220236" lon="13.88316004520896"><ele>422.8571428571429</ele><time>2026-04-23T16:43:09Z</time></trkpt><trkpt lat="45.65104073801804" lon="13.883086765782949"><ele>422.1428571428571</ele><time>2026-04-23T16:43:13Z</time></trkpt><trkpt lat="45.65107051854573" lon="13.882999578319247"><ele>421.42857142857144</ele><time>2026-04-23T16:43:18Z</time></trkpt><trkpt lat="45.65112932585442" lon="13.88292778399935"><ele>420.7142857142857</ele><time>2026-04-23T16:43:24Z</time></trkpt><trkpt lat="45.65119319782936" lon="13.88287607599591"><ele>420.0</ele><time>2026-04-23T16:43:29Z</time></trkpt><trkpt lat="45.651246500248824" lon="13.882820127284797"><ele>419.7142857142857</ele><time>2026-04-23T16:43:33Z</time></trkpt><trkpt lat="45.651297040337624" lon="13.88275013722289"><ele>419.42857142857144</ele><time>2026-04-23T16:43:38Z</time></trkpt><trkpt lat="45.65134895213999" lon="13.882670168495256"><ele>419.1428571428571</ele><time>2026-04-23T16:43:44Z</time></trkpt><trkpt lat="45.65137788929802" lon="13.882583267823756"><ele>418.8571428571429</ele><time>2026-04-23T16:43:50Z</time></trkpt><trkpt lat="45.65141672112876" lon="13.882509619372323"><ele>418.57142857142856</ele><time>2026-04-23T16:43:55Z</time></trkpt><trkpt lat="45.65147696644451" lon="13.882446124065583"><ele>418.2857142857143</ele><time>2026-04-23T16:44:01Z</time></trkpt><trkpt lat="45.6515327879231" lon="13.88234862054651"><ele>418.0</ele><time>2026-04-23T16:44:05.999Z</time></trkpt><trkpt lat="45.651581028290096" lon="13.88228104566887"><ele>417.57142857142856</ele><time>2026-04-23T16:44:11.999Z</time></trkpt><trkpt lat="45.65161628426171" lon="13.882201075275914"><ele>417.1428571428571</ele><time>2026-04-23T16:44:16.999Z</time></trkpt><trkpt lat="45.65163891708101" lon="13.88211125598036"><ele>416.7142857142857</ele><time>2026-04-23T16:44:22.999Z</time></trkpt><trkpt lat="45.6516579262183" lon="13.882014810417576"><ele>416.2857142857143</ele><time>2026-04-23T16:44:26.999Z</time></trkpt><trkpt lat="45.651694651089386" lon="13.881940037555825"><ele>415.8571428571429</ele><time>2026-04-23T16:44:30.999Z</time></trkpt><trkpt lat="45.651739610472596" lon="13.881866680455213"><ele>415.42857142857144</ele><time>2026-04-23T16:44:36.999Z</time></trkpt><trkpt lat="45.65180009639261" lon="13.881804486144606"><ele>415.0</ele><time>2026-04-23T16:44:42.999Z</time></trkpt><trkpt lat="45.65186001611553" lon="13.88175027776108"><ele>414.7142857142857</ele><time>2026-04-23T16:44:48.999Z</time></trkpt><trkpt lat="45.65192734575689" lon="13.881711326625666"><ele>414.42857142857144</ele><time>2026-04-23T16:44:54Z</time></trkpt><trkpt lat="45.65199752346999" lon="13.881722986769056"><ele>414.1428571428571</ele><time>2026-04-23T16:45:00Z</time></trkpt><trkpt lat="45.6520679571745" lon="13.88172293151949"><ele>413.8571428571429</ele><time>2026-04-23T16:45:04Z</time></trkpt><trkpt lat="45.65214018415195" lon="13.881705236605342"><ele>413.57142857142856</ele><time>2026-04-23T16:45:11Z</time></trkpt><trkpt lat="45.65220614806004" lon="13.881654996959554"><ele>413.2857142857143</ele><time>2026-04-23T16:45:15Z</time></trkpt><trkpt lat="45.65226588192648" lon="13.881589695758421"><ele>413.0</ele><time>2026-04-23T16:45:18Z</time></trkpt><trkpt lat="45.65231350920154" lon="13.881516280535678"><ele>412.7142857142857</ele><time>2026-04-23T16:45:23Z</time></trkpt><trkpt lat="45.652344118075995" lon="13.881432807071068"><ele>412.42857142857144</ele><time>2026-04-23T16:45:28Z</time></trkpt><trkpt lat="45.65236886103779" lon="13.881335234803108"><ele>412.1428571428571</ele><time>2026-04-23T16:45:34Z</time></trkpt><trkpt lat="45.65241467872722" lon="13.881248231379395"><ele>411.8571428571429</ele><time>2026-04-23T16:45:39Z</time></trkpt><trkpt lat="45.65242917180974" lon="13.881152892707009"><ele>411.57142857142856</ele><time>2026-04-23T16:45:45Z</time></trkpt><trkpt lat="45.65246468427664" lon="13.881066537015956"><ele>411.2857142857143</ele><time>2026-04-23T16:45:50Z</time></trkpt><trkpt lat="45.65249882103808" lon="13.880972991315819"><ele>411.0</ele><time>2026-04-23T16:45:55Z</time></trkpt><trkpt lat="45.652536206812776" lon="13.880877397886838"><ele>410.57142857142856</ele><time>2026-04-23T16:46:00Z</time></trkpt><trkpt lat="45.65258690322754" lon="13.880802585858946"><ele>410.1428571428571</ele><time>2026-04-23T16:46:05Z</time></trkpt><trkpt lat="45.65263668215806" lon="13.88072442691762"><ele>409.7142857142857</ele><time>2026-04-23T16:46:10Z</time></trkpt><trkpt lat="45.65267993910469" lon="13.880651744619728"><ele>409.2857142857143</ele><time>2026-04-23T16:46:15Z</time></trkpt><trkpt lat="45.65271985093708" lon="13.880571941283934"><ele>408.8571428571429</ele><time>2026-04-23T16:46:19.999Z</time></trkpt><trkpt lat="45.652769323176585" lon="13.880489282445165"><ele>408.42857142857144</ele><time>2026-04-23T16:46:25.999Z</time></trkpt><trkpt lat="45.65281868437757" lon="13.880428241374902"><ele>408.0</ele><time>2026-04-23T16:46:30.999Z</time></trkpt><trkpt lat="45.65287248241067" lon="13.880368810186171"><ele>408.0</ele><time>2026-04-23T16:46:35.999Z</time></trkpt><trkpt lat="45.652936406980125" lon="13.880350368004185"><ele>408.0</ele><time>2026-04-23T16:46:41.999Z</time></trkpt><trkpt lat="45.65300169212286" lon="13.88036195271328"><ele>408.0</ele><time>2026-04-23T16:46:47.999Z</time></trkpt><trkpt lat="45.65306885748555" lon="13.880338363862855"><ele>408.0</ele><time>2026-04-23T16:46:54.999Z</time></trkpt><trkpt lat="45.65314271245348" lon="13.880309912432985"><ele>408.0</ele><time>2026-04-23T16:47:38Z</time></trkpt><trkpt lat="45.65314478264476" lon="13.880405186035789"><ele>408.0</ele><time>2026-04-23T16:50:23Z</time></trkpt><trkpt lat="45.653178162097916" lon="13.880486728011995"><ele>408.0</ele><time>2026-04-23T16:51:44Z</time></trkpt><trkpt lat="45.65320510219814" lon="13.880398549773245"><ele>408.0</ele><time>2026-04-23T16:52:29Z</time></trkpt></trkseg></trk></gpx>